<?xml version="1.0" encoding="ISO-8859-1"?>
<gpx version="1.1" 
creator="Memory-Map 5.4.2.1089 http://www.memory-map.com"
 xmlns:xsi="http://www.w3.org/2001/XMLSchema-instance"
 xmlns="http://www.topografix.com/GPX/1/1"
 xsi:schemaLocation="http://www.topografix.com/GPX/1/1 http://www.topografix.com/GPX/1/1/gpx.xsd">
<trk>
<name>Brecon Beacons</name>
<type>Track</type>
<trkseg>
<trkpt lat="51.9135958354" lon="-3.4192961693"><ele>423</ele><time>2012-09-08T08:44:14Z</time></trkpt>
<trkpt lat="51.9134571711" lon="-3.4193791707"><ele>324</ele><time>2012-09-08T08:45:25Z</time></trkpt>
<trkpt lat="51.9135876973" lon="-3.4193121592"><ele>321</ele><time>2012-09-08T08:45:58Z</time></trkpt>
<trkpt lat="51.9127651850" lon="-3.4188941638"><time>2012-09-08T08:47:39Z</time></trkpt>
<trkpt lat="51.9134136836" lon="-3.4195016543"><ele>318</ele><time>2012-09-08T08:47:49Z</time></trkpt>
<trkpt lat="51.9135646820" lon="-3.4193051656"><ele>314</ele><time>2012-09-08T08:47:59Z</time></trkpt>
<trkpt lat="51.9134115219" lon="-3.4193449974"><ele>318</ele><time>2012-09-08T08:48:34Z</time></trkpt>
<trkpt lat="51.9135361354" lon="-3.4192586581"><ele>324</ele><time>2012-09-08T08:49:10Z</time></trkpt>
<trkpt lat="51.9134381612" lon="-3.4194164912"><ele>317</ele><time>2012-09-08T08:53:25Z</time></trkpt>
<trkpt lat="51.9133041382" lon="-3.4194831530"><ele>319</ele><time>2012-09-08T08:54:17Z</time></trkpt>
<trkpt lat="51.9131594976" lon="-3.4195685069"><ele>319</ele><time>2012-09-08T08:54:38Z</time></trkpt>
<trkpt lat="51.9131039937" lon="-3.4198366801"><ele>320</ele><time>2012-09-08T08:54:48Z</time></trkpt>
<trkpt lat="51.9129809697" lon="-3.4199665070"><ele>320</ele><time>2012-09-08T08:55:03Z</time></trkpt>
<trkpt lat="51.9127846400" lon="-3.4200663249"><ele>320</ele><time>2012-09-08T08:55:13Z</time></trkpt>
<trkpt lat="51.9126216888" lon="-3.4202228228"><ele>320</ele><time>2012-09-08T08:55:23Z</time></trkpt>
<trkpt lat="51.9127138138" lon="-3.4203873316"><ele>321</ele><time>2012-09-08T08:55:34Z</time></trkpt>
<trkpt lat="51.9126186371" lon="-3.4205448469"><ele>322</ele><time>2012-09-08T08:55:45Z</time></trkpt>
<trkpt lat="51.9124918620" lon="-3.4206871668"><ele>323</ele><time>2012-09-08T08:56:12Z</time></trkpt>
<trkpt lat="51.9124761581" lon="-3.4209159851"><ele>323</ele><time>2012-09-08T08:56:24Z</time></trkpt>
<trkpt lat="51.9125331879" lon="-3.4211143176"><ele>325</ele><time>2012-09-08T08:56:45Z</time></trkpt>
<trkpt lat="51.9124834696" lon="-3.4213251750"><ele>329</ele><time>2012-09-08T08:57:11Z</time></trkpt>
<trkpt lat="51.9124493281" lon="-3.4215398471"><ele>330</ele><time>2012-09-08T08:57:23Z</time></trkpt>
<trkpt lat="51.9124373118" lon="-3.4217706680"><ele>331</ele><time>2012-09-08T08:57:37Z</time></trkpt>
<trkpt lat="51.9124848048" lon="-3.4219913483"><ele>342</ele><time>2012-09-08T08:58:23Z</time></trkpt>
<trkpt lat="51.9124638240" lon="-3.4222079913"><ele>343</ele><time>2012-09-08T08:58:35Z</time></trkpt>
<trkpt lat="51.9124504725" lon="-3.4224373182"><ele>343</ele><time>2012-09-08T08:58:48Z</time></trkpt>
<trkpt lat="51.9124088287" lon="-3.4226546605"><ele>343</ele><time>2012-09-08T08:59:03Z</time></trkpt>
<trkpt lat="51.9123090108" lon="-3.4228041649"><ele>344</ele><time>2012-09-08T08:59:23Z</time></trkpt>
<trkpt lat="51.9121748606" lon="-3.4229028384"><ele>347</ele><time>2012-09-08T08:59:59Z</time></trkpt>
<trkpt lat="51.9120391846" lon="-3.4229799906"><ele>348</ele><time>2012-09-08T09:00:12Z</time></trkpt>
<trkpt lat="51.9119201660" lon="-3.4230860074"><ele>348</ele><time>2012-09-08T09:00:25Z</time></trkpt>
<trkpt lat="51.9117941538" lon="-3.4232278188"><ele>349</ele><time>2012-09-08T09:00:35Z</time></trkpt>
<trkpt lat="51.9116611481" lon="-3.4232978185"><ele>351</ele><time>2012-09-08T09:00:50Z</time></trkpt>
<trkpt lat="51.9115304947" lon="-3.4233536720"><ele>352</ele><time>2012-09-08T09:01:03Z</time></trkpt>
<trkpt lat="51.9113921483" lon="-3.4233828227"><ele>353</ele><time>2012-09-08T09:01:18Z</time></trkpt>
<trkpt lat="51.9112515132" lon="-3.4233763377"><ele>354</ele><time>2012-09-08T09:01:32Z</time></trkpt>
<trkpt lat="51.9111209869" lon="-3.4234565099"><ele>356</ele><time>2012-09-08T09:01:46Z</time></trkpt>
<trkpt lat="51.9110253016" lon="-3.4236104965"><ele>361</ele><time>2012-09-08T09:02:54Z</time></trkpt>
<trkpt lat="51.9109183629" lon="-3.4237508456"><ele>363</ele><time>2012-09-08T09:03:20Z</time></trkpt>
<trkpt lat="51.9108196894" lon="-3.4239036560"><ele>365</ele><time>2012-09-08T09:03:35Z</time></trkpt>
<trkpt lat="51.9107070287" lon="-3.4240291595"><ele>367</ele><time>2012-09-08T09:04:08Z</time></trkpt>
<trkpt lat="51.9105831782" lon="-3.4241201719"><ele>369</ele><time>2012-09-08T09:04:22Z</time></trkpt>
<trkpt lat="51.9104759852" lon="-3.4242638270"><ele>371</ele><time>2012-09-08T09:04:41Z</time></trkpt>
<trkpt lat="51.9103740056" lon="-3.4244106611"><ele>372</ele><time>2012-09-08T09:04:56Z</time></trkpt>
<trkpt lat="51.9102523168" lon="-3.4245053291"><ele>373</ele><time>2012-09-08T09:05:10Z</time></trkpt>
<trkpt lat="51.9101399740" lon="-3.4246375084"><ele>376</ele><time>2012-09-08T09:05:26Z</time></trkpt>
<trkpt lat="51.9100346883" lon="-3.4247799873"><ele>379</ele><time>2012-09-08T09:05:45Z</time></trkpt>
<trkpt lat="51.9099246979" lon="-3.4249155045"><ele>384</ele><time>2012-09-08T09:06:14Z</time></trkpt>
<trkpt lat="51.9098083496" lon="-3.4250340144"><ele>390</ele><time>2012-09-08T09:07:04Z</time></trkpt>
<trkpt lat="51.9096846898" lon="-3.4251405080"><ele>392</ele><time>2012-09-08T09:07:21Z</time></trkpt>
<trkpt lat="51.9095509847" lon="-3.4251786550"><ele>393</ele><time>2012-09-08T09:07:39Z</time></trkpt>
<trkpt lat="51.9094050090" lon="-3.4251475016"><ele>398</ele><time>2012-09-08T09:08:14Z</time></trkpt>
<trkpt lat="51.9092735291" lon="-3.4252058347"><ele>400</ele><time>2012-09-08T09:08:27Z</time></trkpt>
<trkpt lat="51.9091306686" lon="-3.4252031644"><ele>402</ele><time>2012-09-08T09:08:42Z</time></trkpt>
<trkpt lat="51.9089991887" lon="-3.4252580007"><ele>403</ele><time>2012-09-08T09:08:58Z</time></trkpt>
<trkpt lat="51.9088640213" lon="-3.4252138456"><ele>405</ele><time>2012-09-08T09:09:16Z</time></trkpt>
<trkpt lat="51.9087310155" lon="-3.4252551715"><ele>407</ele><time>2012-09-08T09:09:34Z</time></trkpt>
<trkpt lat="51.9085968018" lon="-3.4252818425"><ele>410</ele><time>2012-09-08T09:09:56Z</time></trkpt>
<trkpt lat="51.9084578196" lon="-3.4253018379"><ele>413</ele><time>2012-09-08T09:10:17Z</time></trkpt>
<trkpt lat="51.9083236694" lon="-3.4253288269"><ele>416</ele><time>2012-09-08T09:10:39Z</time></trkpt>
<trkpt lat="51.9081871668" lon="-3.4253465017"><ele>418</ele><time>2012-09-08T09:11:00Z</time></trkpt>
<trkpt lat="51.9080486933" lon="-3.4253595034"><ele>423</ele><time>2012-09-08T09:11:25Z</time></trkpt>
<trkpt lat="51.9079136531" lon="-3.4253558477"><ele>427</ele><time>2012-09-08T09:11:51Z</time></trkpt>
<trkpt lat="51.9077768326" lon="-3.4253485044"><ele>430</ele><time>2012-09-08T09:12:12Z</time></trkpt>
<trkpt lat="51.9076376597" lon="-3.4253406525"><ele>433</ele><time>2012-09-08T09:12:35Z</time></trkpt>
<trkpt lat="51.9075021744" lon="-3.4253401756"><ele>437</ele><time>2012-09-08T09:12:52Z</time></trkpt>
<trkpt lat="51.9073633194" lon="-3.4253206571"><ele>440</ele><time>2012-09-08T09:13:11Z</time></trkpt>
<trkpt lat="51.9072276433" lon="-3.4253211657"><ele>450</ele><time>2012-09-08T09:13:53Z</time></trkpt>
<trkpt lat="51.9070911407" lon="-3.4253476779"><ele>452</ele><time>2012-09-08T09:14:14Z</time></trkpt>
<trkpt lat="51.9069533030" lon="-3.4253703435"><ele>455</ele><time>2012-09-08T09:14:45Z</time></trkpt>
<trkpt lat="51.9068159739" lon="-3.4253821691"><ele>456</ele><time>2012-09-08T09:15:04Z</time></trkpt>
<trkpt lat="51.9066801707" lon="-3.4253928185"><ele>458</ele><time>2012-09-08T09:15:26Z</time></trkpt>
<trkpt lat="51.9065453211" lon="-3.4253713290"><ele>460</ele><time>2012-09-08T09:15:48Z</time></trkpt>
<trkpt lat="51.9064139684" lon="-3.4253116608"><ele>465</ele><time>2012-09-08T09:16:11Z</time></trkpt>
<trkpt lat="51.9062748591" lon="-3.4253353437"><ele>468</ele><time>2012-09-08T09:16:29Z</time></trkpt>
<trkpt lat="51.9061644872" lon="-3.4254611651"><ele>475</ele><time>2012-09-08T09:16:57Z</time></trkpt>
<trkpt lat="51.9060401917" lon="-3.4255590121"><ele>481</ele><time>2012-09-08T09:17:24Z</time></trkpt>
<trkpt lat="51.9059251785" lon="-3.4256876628"><ele>484</ele><time>2012-09-08T09:17:45Z</time></trkpt>
<trkpt lat="51.9057889938" lon="-3.4256439845"><ele>488</ele><time>2012-09-08T09:18:10Z</time></trkpt>
<trkpt lat="51.9056441625" lon="-3.4256724993"><ele>490</ele><time>2012-09-08T09:18:29Z</time></trkpt>
<trkpt lat="51.9055073420" lon="-3.4256763458"><ele>494</ele><time>2012-09-08T09:18:49Z</time></trkpt>
<trkpt lat="51.9053796768" lon="-3.4257650057"><ele>497</ele><time>2012-09-08T09:19:05Z</time></trkpt>
<trkpt lat="51.9052381516" lon="-3.4258423487"><ele>501</ele><time>2012-09-08T09:19:25Z</time></trkpt>
<trkpt lat="51.9051031748" lon="-3.4259374936"><ele>505</ele><time>2012-09-08T09:19:42Z</time></trkpt>
<trkpt lat="51.9049736659" lon="-3.4260146777"><ele>508</ele><time>2012-09-08T09:20:02Z</time></trkpt>
<trkpt lat="51.9048546473" lon="-3.4261218389"><ele>512</ele><time>2012-09-08T09:20:29Z</time></trkpt>
<trkpt lat="51.9046961466" lon="-3.4261885007"><ele>517</ele><time>2012-09-08T09:21:02Z</time></trkpt>
<trkpt lat="51.9045796712" lon="-3.4263090134"><ele>519</ele><time>2012-09-08T09:21:15Z</time></trkpt>
<trkpt lat="51.9044445038" lon="-3.4263621648"><ele>523</ele><time>2012-09-08T09:21:40Z</time></trkpt>
<trkpt lat="51.9043090185" lon="-3.4263860067"><ele>527</ele><time>2012-09-08T09:22:03Z</time></trkpt>
<trkpt lat="51.9041668574" lon="-3.4263756752"><ele>532</ele><time>2012-09-08T09:22:30Z</time></trkpt>
<trkpt lat="51.9040260315" lon="-3.4263695081"><ele>536</ele><time>2012-09-08T09:22:54Z</time></trkpt>
<trkpt lat="51.9038874944" lon="-3.4263506571"><ele>541</ele><time>2012-09-08T09:23:19Z</time></trkpt>
<trkpt lat="51.9037503560" lon="-3.4263409932"><ele>544</ele><time>2012-09-08T09:23:36Z</time></trkpt>
<trkpt lat="51.9036138535" lon="-3.4263013204"><ele>549</ele><time>2012-09-08T09:23:59Z</time></trkpt>
<trkpt lat="51.9034786860" lon="-3.4262365023"><ele>553</ele><time>2012-09-08T09:24:22Z</time></trkpt>
<trkpt lat="51.9033496857" lon="-3.4261593183"><ele>558</ele><time>2012-09-08T09:24:42Z</time></trkpt>
<trkpt lat="51.9032206853" lon="-3.4260956764"><ele>563</ele><time>2012-09-08T09:25:05Z</time></trkpt>
<trkpt lat="51.9030858358" lon="-3.4260149956"><ele>569</ele><time>2012-09-08T09:25:35Z</time></trkpt>
<trkpt lat="51.9029490153" lon="-3.4259799957"><ele>572</ele><time>2012-09-08T09:25:54Z</time></trkpt>
<trkpt lat="51.9028099696" lon="-3.4260349909"><ele>576</ele><time>2012-09-08T09:26:13Z</time></trkpt>
<trkpt lat="51.9026741664" lon="-3.4260833422"><ele>579</ele><time>2012-09-08T09:26:31Z</time></trkpt>
<trkpt lat="51.9025391897" lon="-3.4261348406"><ele>582</ele><time>2012-09-08T09:26:47Z</time></trkpt>
<trkpt lat="51.9024003347" lon="-3.4261791547"><ele>586</ele><time>2012-09-08T09:27:06Z</time></trkpt>
<trkpt lat="51.9022654851" lon="-3.4261723200"><ele>591</ele><time>2012-09-08T09:27:31Z</time></trkpt>
<trkpt lat="51.9021306356" lon="-3.4261751811"><ele>602</ele><time>2012-09-08T09:28:06Z</time></trkpt>
<trkpt lat="51.9020154953" lon="-3.4262981733"><ele>604</ele><time>2012-09-08T09:28:24Z</time></trkpt>
<trkpt lat="51.9019106547" lon="-3.4264485041"><ele>607</ele><time>2012-09-08T09:28:40Z</time></trkpt>
<trkpt lat="51.9017708460" lon="-3.4264761607"><ele>609</ele><time>2012-09-08T09:28:56Z</time></trkpt>
<trkpt lat="51.9016378403" lon="-3.4265176773"><ele>612</ele><time>2012-09-08T09:29:20Z</time></trkpt>
<trkpt lat="51.9015019735" lon="-3.4265596708"><ele>615</ele><time>2012-09-08T09:29:43Z</time></trkpt>
<trkpt lat="51.9013781865" lon="-3.4264513334"><ele>619</ele><time>2012-09-08T09:30:07Z</time></trkpt>
<trkpt lat="51.9012516658" lon="-3.4263660113"><ele>623</ele><time>2012-09-08T09:30:26Z</time></trkpt>
<trkpt lat="51.9011154811" lon="-3.4263803482"><ele>625</ele><time>2012-09-08T09:30:39Z</time></trkpt>
<trkpt lat="51.9009801865" lon="-3.4263956706"><ele>628</ele><time>2012-09-08T09:30:54Z</time></trkpt>
<trkpt lat="51.9008401871" lon="-3.4264115016"><ele>631</ele><time>2012-09-08T09:31:09Z</time></trkpt>
<trkpt lat="51.9007023493" lon="-3.4264803251"><ele>635</ele><time>2012-09-08T09:31:30Z</time></trkpt>
<trkpt lat="51.9005720139" lon="-3.4265619914"><ele>638</ele><time>2012-09-08T09:31:42Z</time></trkpt>
<trkpt lat="51.9004381816" lon="-3.4266288439"><ele>640</ele><time>2012-09-08T09:31:53Z</time></trkpt>
<trkpt lat="51.9003000259" lon="-3.4266796748"><ele>642</ele><time>2012-09-08T09:32:04Z</time></trkpt>
<trkpt lat="51.9001776377" lon="-3.4267753283"><ele>644</ele><time>2012-09-08T09:32:17Z</time></trkpt>
<trkpt lat="51.9000415166" lon="-3.4268576622"><ele>645</ele><time>2012-09-08T09:32:30Z</time></trkpt>
<trkpt lat="51.8999090195" lon="-3.4269551595"><ele>647</ele><time>2012-09-08T09:32:41Z</time></trkpt>
<trkpt lat="51.8997833252" lon="-3.4270435015"><ele>648</ele><time>2012-09-08T09:32:53Z</time></trkpt>
<trkpt lat="51.8996503194" lon="-3.4271083196"><ele>649</ele><time>2012-09-08T09:33:05Z</time></trkpt>
<trkpt lat="51.8995163600" lon="-3.4270803452"><ele>650</ele><time>2012-09-08T09:33:18Z</time></trkpt>
<trkpt lat="51.8993901571" lon="-3.4271718343"><ele>649</ele><time>2012-09-08T09:33:31Z</time></trkpt>
<trkpt lat="51.8992633184" lon="-3.4272643407"><ele>650</ele><time>2012-09-08T09:33:42Z</time></trkpt>
<trkpt lat="51.8991281509" lon="-3.4273393313"><ele>650</ele><time>2012-09-08T09:33:56Z</time></trkpt>
<trkpt lat="51.8989993413" lon="-3.4274180094"><ele>651</ele><time>2012-09-08T09:34:13Z</time></trkpt>
<trkpt lat="51.8988698324" lon="-3.4275008202"><ele>652</ele><time>2012-09-08T09:34:29Z</time></trkpt>
<trkpt lat="51.8987480164" lon="-3.4275971731"><ele>653</ele><time>2012-09-08T09:34:44Z</time></trkpt>
<trkpt lat="51.8986131668" lon="-3.4276706696"><ele>654</ele><time>2012-09-08T09:34:59Z</time></trkpt>
<trkpt lat="51.8984865189" lon="-3.4277726809"><ele>655</ele><time>2012-09-08T09:35:15Z</time></trkpt>
<trkpt lat="51.8983686447" lon="-3.4279083252"><ele>656</ele><time>2012-09-08T09:35:31Z</time></trkpt>
<trkpt lat="51.8982475281" lon="-3.4280136744"><ele>659</ele><time>2012-09-08T09:35:48Z</time></trkpt>
<trkpt lat="51.8981238047" lon="-3.4281090101"><ele>664</ele><time>2012-09-08T09:36:13Z</time></trkpt>
<trkpt lat="51.8980021795" lon="-3.4282133420"><ele>665</ele><time>2012-09-08T09:36:29Z</time></trkpt>
<trkpt lat="51.8978659948" lon="-3.4282635053"><ele>666</ele><time>2012-09-08T09:36:43Z</time></trkpt>
<trkpt lat="51.8977358500" lon="-3.4283324877"><ele>668</ele><time>2012-09-08T09:36:57Z</time></trkpt>
<trkpt lat="51.8976123174" lon="-3.4284348488"><ele>670</ele><time>2012-09-08T09:37:16Z</time></trkpt>
<trkpt lat="51.8974831899" lon="-3.4285215060"><ele>673</ele><time>2012-09-08T09:37:33Z</time></trkpt>
<trkpt lat="51.8973480225" lon="-3.4286144892"><ele>676</ele><time>2012-09-08T09:37:49Z</time></trkpt>
<trkpt lat="51.8972051620" lon="-3.4286631584"><ele>678</ele><time>2012-09-08T09:38:05Z</time></trkpt>
<trkpt lat="51.8970768611" lon="-3.4287316640"><ele>679</ele><time>2012-09-08T09:38:19Z</time></trkpt>
<trkpt lat="51.8969491959" lon="-3.4288079898"><ele>681</ele><time>2012-09-08T09:38:33Z</time></trkpt>
<trkpt lat="51.8968211492" lon="-3.4288764954"><ele>684</ele><time>2012-09-08T09:38:48Z</time></trkpt>
<trkpt lat="51.8966925303" lon="-3.4289783478"><ele>686</ele><time>2012-09-08T09:39:07Z</time></trkpt>
<trkpt lat="51.8965578079" lon="-3.4290473302"><ele>689</ele><time>2012-09-08T09:39:23Z</time></trkpt>
<trkpt lat="51.8964233398" lon="-3.4290928205"><ele>691</ele><time>2012-09-08T09:39:37Z</time></trkpt>
<trkpt lat="51.8962848028" lon="-3.4291480064"><ele>693</ele><time>2012-09-08T09:39:51Z</time></trkpt>
<trkpt lat="51.8961594899" lon="-3.4292286555"><ele>698</ele><time>2012-09-08T09:40:19Z</time></trkpt>
<trkpt lat="51.8960154851" lon="-3.4292504946"><ele>700</ele><time>2012-09-08T09:40:31Z</time></trkpt>
<trkpt lat="51.8958808263" lon="-3.4292768478"><ele>700</ele><time>2012-09-08T09:40:42Z</time></trkpt>
<trkpt lat="51.8957396825" lon="-3.4292911530"><ele>701</ele><time>2012-09-08T09:40:54Z</time></trkpt>
<trkpt lat="51.8956006368" lon="-3.4293499947"><ele>702</ele><time>2012-09-08T09:41:05Z</time></trkpt>
<trkpt lat="51.8954611460" lon="-3.4293768247"><ele>702</ele><time>2012-09-08T09:41:17Z</time></trkpt>
<trkpt lat="51.8953208288" lon="-3.4293733279"><ele>703</ele><time>2012-09-08T09:41:29Z</time></trkpt>
<trkpt lat="51.8951759974" lon="-3.4293754896"><ele>703</ele><time>2012-09-08T09:41:40Z</time></trkpt>
<trkpt lat="51.8950323105" lon="-3.4293873469"><ele>704</ele><time>2012-09-08T09:41:52Z</time></trkpt>
<trkpt lat="51.8948941549" lon="-3.4294088364"><ele>704</ele><time>2012-09-08T09:42:03Z</time></trkpt>
<trkpt lat="51.8947631836" lon="-3.4294604937"><ele>704</ele><time>2012-09-08T09:42:14Z</time></trkpt>
<trkpt lat="51.8946213404" lon="-3.4294925054"><ele>704</ele><time>2012-09-08T09:42:25Z</time></trkpt>
<trkpt lat="51.8944823583" lon="-3.4295566559"><ele>704</ele><time>2012-09-08T09:42:36Z</time></trkpt>
<trkpt lat="51.8943466822" lon="-3.4295669874"><ele>703</ele><time>2012-09-08T09:42:46Z</time></trkpt>
<trkpt lat="51.8942088445" lon="-3.4296541532"><ele>703</ele><time>2012-09-08T09:42:58Z</time></trkpt>
<trkpt lat="51.8940683365" lon="-3.4297158241"><ele>703</ele><time>2012-09-08T09:43:09Z</time></trkpt>
<trkpt lat="51.8939296722" lon="-3.4297886531"><ele>703</ele><time>2012-09-08T09:43:21Z</time></trkpt>
<trkpt lat="51.8938053131" lon="-3.4298886617"><ele>704</ele><time>2012-09-08T09:43:32Z</time></trkpt>
<trkpt lat="51.8936714808" lon="-3.4299995104"><ele>703</ele><time>2012-09-08T09:43:43Z</time></trkpt>
<trkpt lat="51.8935206731" lon="-3.4301748276"><ele>703</ele><time>2012-09-08T09:43:53Z</time></trkpt>
<trkpt lat="51.8933769862" lon="-3.4301873207"><ele>703</ele><time>2012-09-08T09:44:09Z</time></trkpt>
<trkpt lat="51.8932443619" lon="-3.4302518209"><ele>703</ele><time>2012-09-08T09:44:21Z</time></trkpt>
<trkpt lat="51.8931133270" lon="-3.4303238233"><ele>703</ele><time>2012-09-08T09:44:33Z</time></trkpt>
<trkpt lat="51.8929819743" lon="-3.4303801537"><ele>703</ele><time>2012-09-08T09:44:45Z</time></trkpt>
<trkpt lat="51.8928446452" lon="-3.4304438273"><ele>703</ele><time>2012-09-08T09:44:57Z</time></trkpt>
<trkpt lat="51.8927150091" lon="-3.4305228233"><ele>703</ele><time>2012-09-08T09:45:09Z</time></trkpt>
<trkpt lat="51.8925798416" lon="-3.4306168238"><ele>703</ele><time>2012-09-08T09:45:21Z</time></trkpt>
<trkpt lat="51.8924640020" lon="-3.4307503382"><ele>703</ele><time>2012-09-08T09:45:32Z</time></trkpt>
<trkpt lat="51.8923475266" lon="-3.4308938344"><ele>703</ele><time>2012-09-08T09:45:43Z</time></trkpt>
<trkpt lat="51.8922356923" lon="-3.4310273488"><ele>703</ele><time>2012-09-08T09:45:55Z</time></trkpt>
<trkpt lat="51.8921156565" lon="-3.4311673482"><ele>704</ele><time>2012-09-08T09:46:07Z</time></trkpt>
<trkpt lat="51.8919930140" lon="-3.4312971751"><ele>704</ele><time>2012-09-08T09:46:19Z</time></trkpt>
<trkpt lat="51.8918659846" lon="-3.4313838323"><ele>704</ele><time>2012-09-08T09:46:31Z</time></trkpt>
<trkpt lat="51.8917401632" lon="-3.4314811707"><ele>705</ele><time>2012-09-08T09:46:43Z</time></trkpt>
<trkpt lat="51.8916171392" lon="-3.4315768242"><ele>706</ele><time>2012-09-08T09:46:55Z</time></trkpt>
<trkpt lat="51.8914960225" lon="-3.4316936811"><ele>706</ele><time>2012-09-08T09:47:08Z</time></trkpt>
<trkpt lat="51.8913676580" lon="-3.4317900022"><ele>707</ele><time>2012-09-08T09:47:20Z</time></trkpt>
<trkpt lat="51.8912373225" lon="-3.4318596522"><ele>708</ele><time>2012-09-08T09:47:31Z</time></trkpt>
<trkpt lat="51.8911121368" lon="-3.4319780032"><ele>709</ele><time>2012-09-08T09:47:44Z</time></trkpt>
<trkpt lat="51.8910056432" lon="-3.4321158409"><ele>710</ele><time>2012-09-08T09:47:56Z</time></trkpt>
<trkpt lat="51.8908911387" lon="-3.4322488467"><ele>710</ele><time>2012-09-08T09:48:09Z</time></trkpt>
<trkpt lat="51.8907733281" lon="-3.4323718389"><ele>711</ele><time>2012-09-08T09:48:22Z</time></trkpt>
<trkpt lat="51.8906523387" lon="-3.4324871699"><ele>711</ele><time>2012-09-08T09:48:37Z</time></trkpt>
<trkpt lat="51.8905399958" lon="-3.4326223373"><ele>713</ele><time>2012-09-08T09:48:51Z</time></trkpt>
<trkpt lat="51.8904181798" lon="-3.4327328364"><ele>714</ele><time>2012-09-08T09:49:03Z</time></trkpt>
<trkpt lat="51.8902923584" lon="-3.4328520139"><ele>715</ele><time>2012-09-08T09:49:16Z</time></trkpt>
<trkpt lat="51.8901713053" lon="-3.4329538345"><ele>716</ele><time>2012-09-08T09:49:29Z</time></trkpt>
<trkpt lat="51.8900674820" lon="-3.4331018448"><ele>718</ele><time>2012-09-08T09:49:44Z</time></trkpt>
<trkpt lat="51.8899576823" lon="-3.4332288424"><ele>720</ele><time>2012-09-08T09:49:55Z</time></trkpt>
<trkpt lat="51.8898343404" lon="-3.4333341599"><ele>721</ele><time>2012-09-08T09:50:08Z</time></trkpt>
<trkpt lat="51.8897104899" lon="-3.4334509850"><ele>722</ele><time>2012-09-08T09:50:22Z</time></trkpt>
<trkpt lat="51.8896083196" lon="-3.4336058299"><ele>733</ele><time>2012-09-08T09:51:14Z</time></trkpt>
<trkpt lat="51.8894871394" lon="-3.4337228457"><ele>734</ele><time>2012-09-08T09:51:26Z</time></trkpt>
<trkpt lat="51.8893678029" lon="-3.4338248253"><ele>734</ele><time>2012-09-08T09:51:39Z</time></trkpt>
<trkpt lat="51.8892558416" lon="-3.4339625041"><ele>735</ele><time>2012-09-08T09:51:52Z</time></trkpt>
<trkpt lat="51.8891344706" lon="-3.4340750058"><ele>736</ele><time>2012-09-08T09:52:05Z</time></trkpt>
<trkpt lat="51.8890226364" lon="-3.4342018445"><ele>737</ele><time>2012-09-08T09:52:18Z</time></trkpt>
<trkpt lat="51.8889208476" lon="-3.4343526522"><ele>738</ele><time>2012-09-08T09:52:31Z</time></trkpt>
<trkpt lat="51.8888048172" lon="-3.4344678243"><ele>739</ele><time>2012-09-08T09:52:45Z</time></trkpt>
<trkpt lat="51.8886906942" lon="-3.4346078237"><ele>740</ele><time>2012-09-08T09:52:59Z</time></trkpt>
<trkpt lat="51.8885701497" lon="-3.4347244898"><ele>741</ele><time>2012-09-08T09:53:14Z</time></trkpt>
<trkpt lat="51.8884481430" lon="-3.4348446528"><ele>742</ele><time>2012-09-08T09:53:29Z</time></trkpt>
<trkpt lat="51.8883231481" lon="-3.4349610011"><ele>745</ele><time>2012-09-08T09:53:43Z</time></trkpt>
<trkpt lat="51.8882034938" lon="-3.4350626628"><ele>747</ele><time>2012-09-08T09:53:59Z</time></trkpt>
<trkpt lat="51.8880825043" lon="-3.4351743380"><ele>749</ele><time>2012-09-08T09:54:16Z</time></trkpt>
<trkpt lat="51.8879553477" lon="-3.4352796555"><ele>752</ele><time>2012-09-08T09:54:35Z</time></trkpt>
<trkpt lat="51.8878430049" lon="-3.4354038239"><ele>755</ele><time>2012-09-08T09:54:52Z</time></trkpt>
<trkpt lat="51.8877088547" lon="-3.4354729970"><ele>757</ele><time>2012-09-08T09:55:09Z</time></trkpt>
<trkpt lat="51.8875838598" lon="-3.4355668386"><ele>759</ele><time>2012-09-08T09:55:26Z</time></trkpt>
<trkpt lat="51.8874554952" lon="-3.4356426557"><ele>761</ele><time>2012-09-08T09:55:40Z</time></trkpt>
<trkpt lat="51.8873286565" lon="-3.4357463201"><ele>763</ele><time>2012-09-08T09:55:58Z</time></trkpt>
<trkpt lat="51.8871899923" lon="-3.4357960065"><ele>765</ele><time>2012-09-08T09:56:15Z</time></trkpt>
<trkpt lat="51.8870526632" lon="-3.4358208338"><ele>767</ele><time>2012-09-08T09:56:29Z</time></trkpt>
<trkpt lat="51.8869161606" lon="-3.4358891805"><ele>770</ele><time>2012-09-08T09:56:44Z</time></trkpt>
<trkpt lat="51.8867813110" lon="-3.4359684944"><ele>771</ele><time>2012-09-08T09:56:58Z</time></trkpt>
<trkpt lat="51.8866493225" lon="-3.4360413233"><ele>773</ele><time>2012-09-08T09:57:11Z</time></trkpt>
<trkpt lat="51.8865158081" lon="-3.4360936801"><ele>777</ele><time>2012-09-08T09:57:28Z</time></trkpt>
<trkpt lat="51.8863910039" lon="-3.4361989975"><ele>779</ele><time>2012-09-08T09:57:44Z</time></trkpt>
<trkpt lat="51.8862523397" lon="-3.4361988386"><ele>783</ele><time>2012-09-08T09:58:04Z</time></trkpt>
<trkpt lat="51.8861183167" lon="-3.4362476667"><ele>786</ele><time>2012-09-08T09:58:23Z</time></trkpt>
<trkpt lat="51.8859825134" lon="-3.4363294919"><ele>790</ele><time>2012-09-08T09:58:43Z</time></trkpt>
<trkpt lat="51.8858478546" lon="-3.4364003181"><ele>793</ele><time>2012-09-08T09:59:02Z</time></trkpt>
<trkpt lat="51.8857076645" lon="-3.4363994916"><ele>797</ele><time>2012-09-08T09:59:20Z</time></trkpt>
<trkpt lat="51.8855665207" lon="-3.4363798459"><ele>800</ele><time>2012-09-08T09:59:36Z</time></trkpt>
<trkpt lat="51.8854344686" lon="-3.4364553452"><ele>803</ele><time>2012-09-08T09:59:53Z</time></trkpt>
<trkpt lat="51.8852970123" lon="-3.4365064939"><ele>807</ele><time>2012-09-08T10:00:08Z</time></trkpt>
<trkpt lat="51.8851731618" lon="-3.4365953445"><ele>810</ele><time>2012-09-08T10:00:23Z</time></trkpt>
<trkpt lat="51.8850575129" lon="-3.4367373466"><ele>813</ele><time>2012-09-08T10:00:36Z</time></trkpt>
<trkpt lat="51.8849196752" lon="-3.4367844899"><ele>817</ele><time>2012-09-08T10:00:56Z</time></trkpt>
<trkpt lat="51.8847866694" lon="-3.4368560155"><ele>821</ele><time>2012-09-08T10:01:15Z</time></trkpt>
<trkpt lat="51.8846571604" lon="-3.4369215012"><ele>825</ele><time>2012-09-08T10:01:40Z</time></trkpt>
<trkpt lat="51.8845221837" lon="-3.4369353294"><ele>830</ele><time>2012-09-08T10:02:00Z</time></trkpt>
<trkpt lat="51.8843861898" lon="-3.4369136810"><ele>838</ele><time>2012-09-08T10:02:35Z</time></trkpt>
<trkpt lat="51.8842506409" lon="-3.4369548480"><ele>844</ele><time>2012-09-08T10:03:06Z</time></trkpt>
<trkpt lat="51.8841285070" lon="-3.4368101756"><ele>852</ele><time>2012-09-08T10:03:35Z</time></trkpt>
<trkpt lat="51.8839899699" lon="-3.4368130048"><ele>865</ele><time>2012-09-08T10:04:21Z</time></trkpt>
<trkpt lat="51.8841124852" lon="-3.4369050026"><ele>888</ele><time>2012-09-08T10:07:18Z</time></trkpt>
<trkpt lat="51.8839916865" lon="-3.4368053436"><ele>888</ele><time>2012-09-08T10:13:12Z</time></trkpt>
<trkpt lat="51.8841188431" lon="-3.4368815104"><ele>888</ele><time>2012-09-08T10:20:28Z</time></trkpt>
<trkpt lat="51.8839823405" lon="-3.4368751526"><ele>888</ele><time>2012-09-08T10:21:27Z</time></trkpt>
<trkpt lat="51.8838768641" lon="-3.4370373408"><ele>886</ele><time>2012-09-08T10:23:04Z</time></trkpt>
<trkpt lat="51.8837319692" lon="-3.4372686704"><ele>886</ele><time>2012-09-08T10:23:14Z</time></trkpt>
<trkpt lat="51.8836381912" lon="-3.4374468486"><ele>885</ele><time>2012-09-08T10:23:25Z</time></trkpt>
<trkpt lat="51.8835278193" lon="-3.4375773430"><ele>885</ele><time>2012-09-08T10:23:36Z</time></trkpt>
<trkpt lat="51.8834604899" lon="-3.4377676646"><ele>885</ele><time>2012-09-08T10:23:47Z</time></trkpt>
<trkpt lat="51.8833985011" lon="-3.4379663467"><ele>884</ele><time>2012-09-08T10:23:59Z</time></trkpt>
<trkpt lat="51.8832619985" lon="-3.4379953384"><ele>883</ele><time>2012-09-08T10:24:19Z</time></trkpt>
<trkpt lat="51.8831366857" lon="-3.4380973180"><ele>883</ele><time>2012-09-08T10:24:29Z</time></trkpt>
<trkpt lat="51.8830356598" lon="-3.4382536570"><ele>882</ele><time>2012-09-08T10:24:41Z</time></trkpt>
<trkpt lat="51.8829436620" lon="-3.4384389877"><ele>882</ele><time>2012-09-08T10:24:52Z</time></trkpt>
<trkpt lat="51.8828765233" lon="-3.4386285146"><ele>882</ele><time>2012-09-08T10:25:04Z</time></trkpt>
<trkpt lat="51.8828556697" lon="-3.4388513247"><ele>881</ele><time>2012-09-08T10:25:22Z</time></trkpt>
<trkpt lat="51.8827986399" lon="-3.4390544891"><ele>880</ele><time>2012-09-08T10:25:43Z</time></trkpt>
<trkpt lat="51.8827781677" lon="-3.4392708460"><ele>878</ele><time>2012-09-08T10:26:08Z</time></trkpt>
<trkpt lat="51.8826770147" lon="-3.4394358317"><ele>876</ele><time>2012-09-08T10:26:26Z</time></trkpt>
<trkpt lat="51.8826303482" lon="-3.4396586736"><ele>874</ele><time>2012-09-08T10:26:36Z</time></trkpt>
<trkpt lat="51.8825579961" lon="-3.4398521741"><ele>870</ele><time>2012-09-08T10:26:46Z</time></trkpt>
<trkpt lat="51.8825174967" lon="-3.4400679906"><ele>867</ele><time>2012-09-08T10:26:58Z</time></trkpt>
<trkpt lat="51.8824866613" lon="-3.4402935028"><ele>865</ele><time>2012-09-08T10:27:10Z</time></trkpt>
<trkpt lat="51.8824270248" lon="-3.4405098279"><ele>863</ele><time>2012-09-08T10:27:22Z</time></trkpt>
<trkpt lat="51.8823541641" lon="-3.4407010078"><ele>860</ele><time>2012-09-08T10:27:36Z</time></trkpt>
<trkpt lat="51.8823006948" lon="-3.4409158389"><ele>858</ele><time>2012-09-08T10:27:48Z</time></trkpt>
<trkpt lat="51.8822231929" lon="-3.4410991669"><ele>857</ele><time>2012-09-08T10:27:59Z</time></trkpt>
<trkpt lat="51.8821581523" lon="-3.4412943204"><ele>855</ele><time>2012-09-08T10:28:10Z</time></trkpt>
<trkpt lat="51.8820735296" lon="-3.4414856593"><ele>854</ele><time>2012-09-08T10:28:23Z</time></trkpt>
<trkpt lat="51.8820100149" lon="-3.4416858355"><ele>853</ele><time>2012-09-08T10:28:40Z</time></trkpt>
<trkpt lat="51.8819296519" lon="-3.4418704987"><ele>853</ele><time>2012-09-08T10:28:55Z</time></trkpt>
<trkpt lat="51.8818786621" lon="-3.4420831680"><ele>852</ele><time>2012-09-08T10:29:09Z</time></trkpt>
<trkpt lat="51.8818543116" lon="-3.4423009872"><ele>852</ele><time>2012-09-08T10:29:23Z</time></trkpt>
<trkpt lat="51.8817511876" lon="-3.4424495061"><ele>853</ele><time>2012-09-08T10:29:51Z</time></trkpt>
<trkpt lat="51.8817054749" lon="-3.4426581701"><ele>854</ele><time>2012-09-08T10:30:12Z</time></trkpt>
<trkpt lat="51.8817411423" lon="-3.4428711573"><ele>858</ele><time>2012-09-08T10:30:47Z</time></trkpt>
<trkpt lat="51.8817799886" lon="-3.4430893262"><ele>859</ele><time>2012-09-08T10:31:04Z</time></trkpt>
<trkpt lat="51.8817590078" lon="-3.4433111509"><ele>861</ele><time>2012-09-08T10:31:17Z</time></trkpt>
<trkpt lat="51.8817773183" lon="-3.4435296694"><ele>862</ele><time>2012-09-08T10:31:31Z</time></trkpt>
<trkpt lat="51.8817070007" lon="-3.4437164942"><ele>869</ele><time>2012-09-08T10:32:22Z</time></trkpt>
<trkpt lat="51.8816960017" lon="-3.4434876760"><ele>873</ele><time>2012-09-08T10:36:06Z</time></trkpt>
<trkpt lat="51.8816986720" lon="-3.4432585080"><ele>873</ele><time>2012-09-08T10:36:20Z</time></trkpt>
<trkpt lat="51.8816803614" lon="-3.4430308342"><ele>873</ele><time>2012-09-08T10:36:34Z</time></trkpt>
<trkpt lat="51.8816848119" lon="-3.4427953402"><ele>872</ele><time>2012-09-08T10:36:48Z</time></trkpt>
<trkpt lat="51.8816936493" lon="-3.4425733248"><ele>871</ele><time>2012-09-08T10:37:15Z</time></trkpt>
<trkpt lat="51.8817684809" lon="-3.4423850060"><ele>870</ele><time>2012-09-08T10:37:38Z</time></trkpt>
<trkpt lat="51.8818606695" lon="-3.4422188441"><ele>869</ele><time>2012-09-08T10:37:56Z</time></trkpt>
<trkpt lat="51.8819178263" lon="-3.4420174917"><ele>867</ele><time>2012-09-08T10:38:14Z</time></trkpt>
<trkpt lat="51.8819819768" lon="-3.4418178240"><ele>865</ele><time>2012-09-08T10:38:28Z</time></trkpt>
<trkpt lat="51.8820186615" lon="-3.4415996552"><ele>862</ele><time>2012-09-08T10:38:41Z</time></trkpt>
<trkpt lat="51.8820983251" lon="-3.4414164861"><ele>860</ele><time>2012-09-08T10:38:52Z</time></trkpt>
<trkpt lat="51.8821835200" lon="-3.4412469864"><ele>859</ele><time>2012-09-08T10:39:03Z</time></trkpt>
<trkpt lat="51.8822380066" lon="-3.4410209974"><ele>857</ele><time>2012-09-08T10:39:17Z</time></trkpt>
<trkpt lat="51.8823158264" lon="-3.4408281644"><ele>855</ele><time>2012-09-08T10:39:27Z</time></trkpt>
<trkpt lat="51.8823836644" lon="-3.4406189919"><ele>854</ele><time>2012-09-08T10:39:40Z</time></trkpt>
<trkpt lat="51.8824415207" lon="-3.4404120127"><ele>853</ele><time>2012-09-08T10:39:51Z</time></trkpt>
<trkpt lat="51.8824908574" lon="-3.4402081807"><ele>852</ele><time>2012-09-08T10:40:03Z</time></trkpt>
<trkpt lat="51.8825344721" lon="-3.4399944941"><ele>852</ele><time>2012-09-08T10:40:17Z</time></trkpt>
<trkpt lat="51.8825458527" lon="-3.4397726695"><ele>851</ele><time>2012-09-08T10:40:31Z</time></trkpt>
<trkpt lat="51.8825933456" lon="-3.4395620028"><ele>851</ele><time>2012-09-08T10:40:43Z</time></trkpt>
<trkpt lat="51.8826543172" lon="-3.4393606822"><ele>852</ele><time>2012-09-08T10:40:56Z</time></trkpt>
<trkpt lat="51.8827395121" lon="-3.4391805013"><ele>852</ele><time>2012-09-08T10:41:13Z</time></trkpt>
<trkpt lat="51.8827906926" lon="-3.4389786720"><ele>854</ele><time>2012-09-08T10:41:36Z</time></trkpt>
<trkpt lat="51.8828570048" lon="-3.4387838364"><ele>856</ele><time>2012-09-08T10:41:58Z</time></trkpt>
<trkpt lat="51.8828961690" lon="-3.4385691643"><ele>858</ele><time>2012-09-08T10:42:17Z</time></trkpt>
<trkpt lat="51.8829523087" lon="-3.4383540154"><ele>860</ele><time>2012-09-08T10:42:34Z</time></trkpt>
<trkpt lat="51.8830211639" lon="-3.4381511688"><ele>862</ele><time>2012-09-08T10:42:52Z</time></trkpt>
<trkpt lat="51.8831353505" lon="-3.4380213420"><ele>864</ele><time>2012-09-08T10:43:06Z</time></trkpt>
<trkpt lat="51.8832566579" lon="-3.4378886541"><ele>865</ele><time>2012-09-08T10:43:19Z</time></trkpt>
<trkpt lat="51.8833513260" lon="-3.4377288183"><ele>867</ele><time>2012-09-08T10:43:35Z</time></trkpt>
<trkpt lat="51.8834489822" lon="-3.4375714938"><ele>869</ele><time>2012-09-08T10:43:48Z</time></trkpt>
<trkpt lat="51.8835548401" lon="-3.4374088287"><ele>871</ele><time>2012-09-08T10:44:01Z</time></trkpt>
<trkpt lat="51.8836576462" lon="-3.4372616768"><ele>873</ele><time>2012-09-08T10:44:17Z</time></trkpt>
<trkpt lat="51.8837211609" lon="-3.4370643298"><ele>876</ele><time>2012-09-08T10:44:40Z</time></trkpt>
<trkpt lat="51.8837856929" lon="-3.4368716558"><ele>878</ele><time>2012-09-08T10:44:53Z</time></trkpt>
<trkpt lat="51.8837268194" lon="-3.4366666794"><ele>880</ele><time>2012-09-08T10:45:09Z</time></trkpt>
<trkpt lat="51.8836253484" lon="-3.4365128199"><ele>881</ele><time>2012-09-08T10:45:22Z</time></trkpt>
<trkpt lat="51.8835016886" lon="-3.4364118258"><ele>882</ele><time>2012-09-08T10:45:35Z</time></trkpt>
<trkpt lat="51.8833893458" lon="-3.4362826665"><ele>882</ele><time>2012-09-08T10:45:47Z</time></trkpt>
<trkpt lat="51.8832808177" lon="-3.4361363411"><ele>882</ele><time>2012-09-08T10:46:01Z</time></trkpt>
<trkpt lat="51.8831523259" lon="-3.4360329946"><ele>881</ele><time>2012-09-08T10:46:14Z</time></trkpt>
<trkpt lat="51.8830209732" lon="-3.4360856692"><ele>881</ele><time>2012-09-08T10:46:34Z</time></trkpt>
<trkpt lat="51.8830134710" lon="-3.4358511607"><ele>877</ele><time>2012-09-08T10:47:03Z</time></trkpt>
<trkpt lat="51.8829643250" lon="-3.4356380145"><ele>874</ele><time>2012-09-08T10:47:20Z</time></trkpt>
<trkpt lat="51.8828854879" lon="-3.4354471525"><ele>871</ele><time>2012-09-08T10:47:38Z</time></trkpt>
<trkpt lat="51.8827486674" lon="-3.4354768435"><ele>868</ele><time>2012-09-08T10:47:54Z</time></trkpt>
<trkpt lat="51.8826251984" lon="-3.4353803317"><ele>860</ele><time>2012-09-08T10:48:19Z</time></trkpt>
<trkpt lat="51.8825126648" lon="-3.4352481524"><ele>850</ele><time>2012-09-08T10:49:00Z</time></trkpt>
<trkpt lat="51.8823746363" lon="-3.4352210045"><ele>846</ele><time>2012-09-08T10:49:21Z</time></trkpt>
<trkpt lat="51.8824536641" lon="-3.4354016622"><ele>836</ele><time>2012-09-08T10:52:54Z</time></trkpt>
<trkpt lat="51.8823668162" lon="-3.4352250099"><ele>836</ele><time>2012-09-08T10:53:48Z</time></trkpt>
<trkpt lat="51.8823158264" lon="-3.4350134850"><ele>834</ele><time>2012-09-08T10:57:06Z</time></trkpt>
<trkpt lat="51.8823556900" lon="-3.4352233251"><ele>833</ele><time>2012-09-08T10:57:43Z</time></trkpt>
<trkpt lat="51.8822268168" lon="-3.4353295008"><ele>832</ele><time>2012-09-08T11:04:42Z</time></trkpt>
<trkpt lat="51.8823568344" lon="-3.4352533340"><ele>831</ele><time>2012-09-08T11:06:54Z</time></trkpt>
<trkpt lat="51.8823118210" lon="-3.4350438436"><ele>832</ele><time>2012-09-08T11:08:26Z</time></trkpt>
<trkpt lat="51.8822301865" lon="-3.4348681768"><ele>830</ele><time>2012-09-08T11:08:48Z</time></trkpt>
<trkpt lat="51.8821451823" lon="-3.4346910159"><ele>827</ele><time>2012-09-08T11:09:07Z</time></trkpt>
<trkpt lat="51.8820528030" lon="-3.4345203400"><ele>823</ele><time>2012-09-08T11:09:28Z</time></trkpt>
<trkpt lat="51.8819981893" lon="-3.4343209902"><ele>820</ele><time>2012-09-08T11:09:47Z</time></trkpt>
<trkpt lat="51.8819278081" lon="-3.4341184934"><ele>817</ele><time>2012-09-08T11:10:05Z</time></trkpt>
<trkpt lat="51.8818863551" lon="-3.4338981628"><ele>814</ele><time>2012-09-08T11:10:24Z</time></trkpt>
<trkpt lat="51.8818278631" lon="-3.4336961746"><ele>811</ele><time>2012-09-08T11:10:39Z</time></trkpt>
<trkpt lat="51.8817891439" lon="-3.4334803263"><ele>809</ele><time>2012-09-08T11:10:55Z</time></trkpt>
<trkpt lat="51.8817324956" lon="-3.4332706769"><ele>806</ele><time>2012-09-08T11:11:11Z</time></trkpt>
<trkpt lat="51.8817014694" lon="-3.4330566724"><ele>804</ele><time>2012-09-08T11:11:26Z</time></trkpt>
<trkpt lat="51.8816708247" lon="-3.4328421593"><ele>802</ele><time>2012-09-08T11:11:42Z</time></trkpt>
<trkpt lat="51.8816351573" lon="-3.4326305072"><ele>800</ele><time>2012-09-08T11:11:59Z</time></trkpt>
<trkpt lat="51.8816160202" lon="-3.4323986689"><ele>798</ele><time>2012-09-08T11:12:11Z</time></trkpt>
<trkpt lat="51.8815673192" lon="-3.4321873347"><ele>795</ele><time>2012-09-08T11:12:25Z</time></trkpt>
<trkpt lat="51.8814819972" lon="-3.4319943428"><ele>793</ele><time>2012-09-08T11:12:41Z</time></trkpt>
<trkpt lat="51.8814364751" lon="-3.4317845027"><ele>791</ele><time>2012-09-08T11:12:54Z</time></trkpt>
<trkpt lat="51.8814015071" lon="-3.4315691630"><ele>788</ele><time>2012-09-08T11:13:10Z</time></trkpt>
<trkpt lat="51.8813353221" lon="-3.4313731511"><ele>785</ele><time>2012-09-08T11:13:26Z</time></trkpt>
<trkpt lat="51.8813271840" lon="-3.4311436653"><ele>783</ele><time>2012-09-08T11:13:42Z</time></trkpt>
<trkpt lat="51.8812888463" lon="-3.4309225082"><ele>779</ele><time>2012-09-08T11:13:59Z</time></trkpt>
<trkpt lat="51.8812621435" lon="-3.4307061513"><ele>774</ele><time>2012-09-08T11:14:20Z</time></trkpt>
<trkpt lat="51.8812086741" lon="-3.4304911613"><ele>770</ele><time>2012-09-08T11:14:39Z</time></trkpt>
<trkpt lat="51.8811486562" lon="-3.4302898407"><ele>767</ele><time>2012-09-08T11:14:55Z</time></trkpt>
<trkpt lat="51.8811043421" lon="-3.4300754865"><ele>762</ele><time>2012-09-08T11:15:15Z</time></trkpt>
<trkpt lat="51.8810133616" lon="-3.4298914909"><ele>756</ele><time>2012-09-08T11:15:35Z</time></trkpt>
<trkpt lat="51.8809769948" lon="-3.4296698252"><ele>752</ele><time>2012-09-08T11:15:52Z</time></trkpt>
<trkpt lat="51.8808956782" lon="-3.4294831594"><ele>749</ele><time>2012-09-08T11:16:06Z</time></trkpt>
<trkpt lat="51.8808306376" lon="-3.4292828242"><ele>745</ele><time>2012-09-08T11:16:25Z</time></trkpt>
<trkpt lat="51.8807466507" lon="-3.4290978432"><ele>740</ele><time>2012-09-08T11:16:43Z</time></trkpt>
<trkpt lat="51.8807130178" lon="-3.4288791656"><ele>732</ele><time>2012-09-08T11:17:04Z</time></trkpt>
<trkpt lat="51.8807143529" lon="-3.4286609968"><ele>728</ele><time>2012-09-08T11:17:26Z</time></trkpt>
<trkpt lat="51.8806159973" lon="-3.4284958204"><ele>724</ele><time>2012-09-08T11:17:43Z</time></trkpt>
<trkpt lat="51.8806540171" lon="-3.4282838186"><ele>719</ele><time>2012-09-08T11:18:06Z</time></trkpt>
<trkpt lat="51.8806159973" lon="-3.4280643463"><ele>715</ele><time>2012-09-08T11:18:24Z</time></trkpt>
<trkpt lat="51.8805688222" lon="-3.4278481801"><ele>708</ele><time>2012-09-08T11:18:48Z</time></trkpt>
<trkpt lat="51.8805246353" lon="-3.4276398341"><ele>703</ele><time>2012-09-08T11:19:10Z</time></trkpt>
<trkpt lat="51.8805145264" lon="-3.4274133364"><ele>699</ele><time>2012-09-08T11:19:28Z</time></trkpt>
<trkpt lat="51.8804634730" lon="-3.4271935145"><ele>693</ele><time>2012-09-08T11:19:50Z</time></trkpt>
<trkpt lat="51.8804458618" lon="-3.4269645055"><ele>688</ele><time>2012-09-08T11:20:05Z</time></trkpt>
<trkpt lat="51.8804526647" lon="-3.4267401695"><ele>685</ele><time>2012-09-08T11:20:18Z</time></trkpt>
<trkpt lat="51.8804841359" lon="-3.4265265147"><ele>682</ele><time>2012-09-08T11:20:29Z</time></trkpt>
<trkpt lat="51.8804801941" lon="-3.4262936592"><ele>680</ele><time>2012-09-08T11:20:40Z</time></trkpt>
<trkpt lat="51.8804824829" lon="-3.4260553360"><ele>678</ele><time>2012-09-08T11:20:52Z</time></trkpt>
<trkpt lat="51.8804665248" lon="-3.4258351644"><ele>677</ele><time>2012-09-08T11:21:03Z</time></trkpt>
<trkpt lat="51.8805044810" lon="-3.4256151517"><ele>675</ele><time>2012-09-08T11:21:15Z</time></trkpt>
<trkpt lat="51.8805371602" lon="-3.4253911654"><ele>675</ele><time>2012-09-08T11:21:27Z</time></trkpt>
<trkpt lat="51.8805921555" lon="-3.4251834869"><ele>675</ele><time>2012-09-08T11:21:42Z</time></trkpt>
<trkpt lat="51.8806378047" lon="-3.4249765078"><ele>675</ele><time>2012-09-08T11:21:57Z</time></trkpt>
<trkpt lat="51.8806699753" lon="-3.4247634888"><ele>675</ele><time>2012-09-08T11:22:15Z</time></trkpt>
<trkpt lat="51.8807071686" lon="-3.4245493253"><ele>676</ele><time>2012-09-08T11:22:37Z</time></trkpt>
<trkpt lat="51.8807381948" lon="-3.4243353208"><ele>678</ele><time>2012-09-08T11:22:55Z</time></trkpt>
<trkpt lat="51.8807766596" lon="-3.4241230011"><ele>680</ele><time>2012-09-08T11:23:18Z</time></trkpt>
<trkpt lat="51.8808426539" lon="-3.4239293416"><ele>685</ele><time>2012-09-08T11:23:53Z</time></trkpt>
<trkpt lat="51.8808886846" lon="-3.4237244924"><ele>688</ele><time>2012-09-08T11:24:18Z</time></trkpt>
<trkpt lat="51.8809138616" lon="-3.4235086759"><ele>693</ele><time>2012-09-08T11:24:46Z</time></trkpt>
<trkpt lat="51.8810038249" lon="-3.4233333270"><ele>696</ele><time>2012-09-08T11:25:03Z</time></trkpt>
<trkpt lat="51.8809998194" lon="-3.4231106758"><ele>701</ele><time>2012-09-08T11:25:30Z</time></trkpt>
<trkpt lat="51.8810305278" lon="-3.4228850047"><ele>706</ele><time>2012-09-08T11:25:50Z</time></trkpt>
<trkpt lat="51.8810433070" lon="-3.4226536751"><ele>712</ele><time>2012-09-08T11:26:20Z</time></trkpt>
<trkpt lat="51.8810331980" lon="-3.4224329948"><ele>716</ele><time>2012-09-08T11:26:50Z</time></trkpt>
<trkpt lat="51.8810821533" lon="-3.4222253482"><ele>719</ele><time>2012-09-08T11:27:17Z</time></trkpt>
<trkpt lat="51.8811401367" lon="-3.4220263481"><ele>723</ele><time>2012-09-08T11:27:37Z</time></trkpt>
<trkpt lat="51.8811831792" lon="-3.4218169848"><ele>727</ele><time>2012-09-08T11:27:59Z</time></trkpt>
<trkpt lat="51.8812743505" lon="-3.4216309865"><ele>733</ele><time>2012-09-08T11:28:28Z</time></trkpt>
<trkpt lat="51.8813336690" lon="-3.4214146614"><ele>738</ele><time>2012-09-08T11:28:46Z</time></trkpt>
<trkpt lat="51.8813886642" lon="-3.4212136587"><ele>744</ele><time>2012-09-08T11:29:18Z</time></trkpt>
<trkpt lat="51.8814576467" lon="-3.4210251808"><ele>751</ele><time>2012-09-08T11:29:33Z</time></trkpt>
<trkpt lat="51.8815149943" lon="-3.4208215078"><ele>755</ele><time>2012-09-08T11:29:47Z</time></trkpt>
<trkpt lat="51.8815793355" lon="-3.4206174850"><ele>762</ele><time>2012-09-08T11:30:06Z</time></trkpt>
<trkpt lat="51.8815956752" lon="-3.4203973452"><ele>767</ele><time>2012-09-08T11:30:20Z</time></trkpt>
<trkpt lat="51.8816028595" lon="-3.4201765060"><ele>772</ele><time>2012-09-08T11:30:40Z</time></trkpt>
<trkpt lat="51.8816385269" lon="-3.4199663480"><ele>774</ele><time>2012-09-08T11:30:55Z</time></trkpt>
<trkpt lat="51.8816911697" lon="-3.4197514852"><ele>781</ele><time>2012-09-08T11:31:13Z</time></trkpt>
<trkpt lat="51.8817396800" lon="-3.4195466677"><ele>787</ele><time>2012-09-08T11:31:33Z</time></trkpt>
<trkpt lat="51.8816071828" lon="-3.4195003192"><ele>795</ele><time>2012-09-08T11:42:36Z</time></trkpt>
<trkpt lat="51.8814720154" lon="-3.4195236524"><ele>794</ele><time>2012-09-08T11:42:52Z</time></trkpt>
<trkpt lat="51.8813313166" lon="-3.4195445061"><ele>794</ele><time>2012-09-08T11:43:06Z</time></trkpt>
<trkpt lat="51.8811890284" lon="-3.4195405006"><ele>793</ele><time>2012-09-08T11:43:20Z</time></trkpt>
<trkpt lat="51.8810508092" lon="-3.4194743474"><ele>791</ele><time>2012-09-08T11:43:34Z</time></trkpt>
<trkpt lat="51.8809186935" lon="-3.4194076538"><ele>789</ele><time>2012-09-08T11:43:47Z</time></trkpt>
<trkpt lat="51.8807971954" lon="-3.4192763329"><ele>787</ele><time>2012-09-08T11:44:00Z</time></trkpt>
<trkpt lat="51.8806651433" lon="-3.4192319870"><ele>785</ele><time>2012-09-08T11:44:13Z</time></trkpt>
<trkpt lat="51.8805358251" lon="-3.4191644986"><ele>784</ele><time>2012-09-08T11:44:25Z</time></trkpt>
<trkpt lat="51.8803913116" lon="-3.4191439946"><ele>783</ele><time>2012-09-08T11:44:39Z</time></trkpt>
<trkpt lat="51.8802578608" lon="-3.4190698306"><ele>781</ele><time>2012-09-08T11:44:53Z</time></trkpt>
<trkpt lat="51.8801286697" lon="-3.4189828237"><ele>779</ele><time>2012-09-08T11:45:05Z</time></trkpt>
<trkpt lat="51.8799921672" lon="-3.4188964844"><ele>777</ele><time>2012-09-08T11:45:16Z</time></trkpt>
<trkpt lat="51.8798578262" lon="-3.4188183467"><ele>775</ele><time>2012-09-08T11:45:29Z</time></trkpt>
<trkpt lat="51.8797328313" lon="-3.4187040011"><ele>772</ele><time>2012-09-08T11:45:42Z</time></trkpt>
<trkpt lat="51.8796155294" lon="-3.4185880025"><ele>769</ele><time>2012-09-08T11:45:55Z</time></trkpt>
<trkpt lat="51.8794890086" lon="-3.4185015043"><ele>767</ele><time>2012-09-08T11:46:08Z</time></trkpt>
<trkpt lat="51.8793581645" lon="-3.4183993340"><ele>765</ele><time>2012-09-08T11:46:21Z</time></trkpt>
<trkpt lat="51.8792136510" lon="-3.4183629990"><ele>763</ele><time>2012-09-08T11:46:33Z</time></trkpt>
<trkpt lat="51.8790778478" lon="-3.4182881673"><ele>762</ele><time>2012-09-08T11:46:45Z</time></trkpt>
<trkpt lat="51.8789373398" lon="-3.4182273229"><ele>760</ele><time>2012-09-08T11:46:58Z</time></trkpt>
<trkpt lat="51.8788086573" lon="-3.4181146622"><ele>759</ele><time>2012-09-08T11:47:10Z</time></trkpt>
<trkpt lat="51.8786986669" lon="-3.4179553350"><ele>758</ele><time>2012-09-08T11:47:22Z</time></trkpt>
<trkpt lat="51.8785726547" lon="-3.4178568204"><ele>757</ele><time>2012-09-08T11:47:35Z</time></trkpt>
<trkpt lat="51.8784291585" lon="-3.4178119977"><ele>755</ele><time>2012-09-08T11:48:03Z</time></trkpt>
<trkpt lat="51.8782939911" lon="-3.4178085009"><ele>753</ele><time>2012-09-08T11:48:17Z</time></trkpt>
<trkpt lat="51.8781665166" lon="-3.4177126567"><ele>752</ele><time>2012-09-08T11:48:27Z</time></trkpt>
<trkpt lat="51.8780380249" lon="-3.4176153183"><ele>750</ele><time>2012-09-08T11:48:39Z</time></trkpt>
<trkpt lat="51.8779116948" lon="-3.4175246557"><ele>748</ele><time>2012-09-08T11:48:53Z</time></trkpt>
<trkpt lat="51.8777886709" lon="-3.4174036662"><ele>746</ele><time>2012-09-08T11:49:04Z</time></trkpt>
<trkpt lat="51.8776570002" lon="-3.4172884941"><ele>745</ele><time>2012-09-08T11:49:16Z</time></trkpt>
<trkpt lat="51.8775314967" lon="-3.4171790123"><ele>744</ele><time>2012-09-08T11:49:26Z</time></trkpt>
<trkpt lat="51.8774126689" lon="-3.4170756658"><ele>742</ele><time>2012-09-08T11:49:38Z</time></trkpt>
<trkpt lat="51.8772940318" lon="-3.4169308345"><ele>740</ele><time>2012-09-08T11:49:51Z</time></trkpt>
<trkpt lat="51.8771821976" lon="-3.4167936643"><ele>739</ele><time>2012-09-08T11:50:02Z</time></trkpt>
<trkpt lat="51.8770663579" lon="-3.4166513443"><ele>738</ele><time>2012-09-08T11:50:13Z</time></trkpt>
<trkpt lat="51.8769568125" lon="-3.4165104866"><ele>737</ele><time>2012-09-08T11:50:24Z</time></trkpt>
<trkpt lat="51.8768454870" lon="-3.4163704872"><ele>736</ele><time>2012-09-08T11:50:35Z</time></trkpt>
<trkpt lat="51.8767356873" lon="-3.4162348429"><ele>735</ele><time>2012-09-08T11:50:46Z</time></trkpt>
<trkpt lat="51.8766384761" lon="-3.4160786629"><ele>734</ele><time>2012-09-08T11:50:57Z</time></trkpt>
<trkpt lat="51.8764971415" lon="-3.4160278320"><ele>733</ele><time>2012-09-08T11:51:09Z</time></trkpt>
<trkpt lat="51.8763911565" lon="-3.4158721606"><ele>733</ele><time>2012-09-08T11:51:21Z</time></trkpt>
<trkpt lat="51.8763779958" lon="-3.4156550090"><ele>732</ele><time>2012-09-08T11:51:33Z</time></trkpt>
<trkpt lat="51.8763071696" lon="-3.4154525121"><ele>732</ele><time>2012-09-08T11:51:45Z</time></trkpt>
<trkpt lat="51.8762226741" lon="-3.4152658463"><ele>731</ele><time>2012-09-08T11:51:56Z</time></trkpt>
<trkpt lat="51.8761398315" lon="-3.4150725047"><ele>730</ele><time>2012-09-08T11:52:07Z</time></trkpt>
<trkpt lat="51.8760931651" lon="-3.4148641586"><ele>730</ele><time>2012-09-08T11:52:18Z</time></trkpt>
<trkpt lat="51.8760864894" lon="-3.4146224976"><ele>729</ele><time>2012-09-08T11:52:30Z</time></trkpt>
<trkpt lat="51.8760279973" lon="-3.4144128482"><ele>729</ele><time>2012-09-08T11:52:41Z</time></trkpt>
<trkpt lat="51.8760098139" lon="-3.4141788483"><ele>728</ele><time>2012-09-08T11:52:52Z</time></trkpt>
<trkpt lat="51.8759290059" lon="-3.4139961561"><ele>727</ele><time>2012-09-08T11:53:02Z</time></trkpt>
<trkpt lat="51.8758566538" lon="-3.4138123194"><ele>727</ele><time>2012-09-08T11:53:12Z</time></trkpt>
<trkpt lat="51.8757826487" lon="-3.4136168480"><ele>726</ele><time>2012-09-08T11:53:25Z</time></trkpt>
<trkpt lat="51.8757251740" lon="-3.4134158452"><ele>725</ele><time>2012-09-08T11:53:38Z</time></trkpt>
<trkpt lat="51.8756461461" lon="-3.4132225037"><ele>720</ele><time>2012-09-08T11:53:58Z</time></trkpt>
<trkpt lat="51.8756179810" lon="-3.4130018234"><ele>718</ele><time>2012-09-08T11:54:16Z</time></trkpt>
<trkpt lat="51.8755994797" lon="-3.4127820015"><ele>714</ele><time>2012-09-08T11:54:32Z</time></trkpt>
<trkpt lat="51.8755856832" lon="-3.4125566800"><ele>709</ele><time>2012-09-08T11:54:45Z</time></trkpt>
<trkpt lat="51.8755489985" lon="-3.4123443286"><ele>707</ele><time>2012-09-08T11:54:58Z</time></trkpt>
<trkpt lat="51.8754514694" lon="-3.4121826808"><ele>704</ele><time>2012-09-08T11:55:09Z</time></trkpt>
<trkpt lat="51.8753515244" lon="-3.4120224953"><ele>701</ele><time>2012-09-08T11:55:22Z</time></trkpt>
<trkpt lat="51.8752798080" lon="-3.4118351618"><ele>697</ele><time>2012-09-08T11:55:37Z</time></trkpt>
<trkpt lat="51.8752269745" lon="-3.4116345088"><ele>692</ele><time>2012-09-08T11:56:00Z</time></trkpt>
<trkpt lat="51.8751590093" lon="-3.4114461581"><ele>687</ele><time>2012-09-08T11:56:23Z</time></trkpt>
<trkpt lat="51.8751648585" lon="-3.4112271627"><ele>684</ele><time>2012-09-08T11:56:40Z</time></trkpt>
<trkpt lat="51.8750988642" lon="-3.4110294978"><ele>678</ele><time>2012-09-08T11:56:59Z</time></trkpt>
<trkpt lat="51.8751221975" lon="-3.4108059883"><ele>673</ele><time>2012-09-08T11:57:18Z</time></trkpt>
<trkpt lat="51.8750903447" lon="-3.4105774879"><ele>668</ele><time>2012-09-08T11:57:36Z</time></trkpt>
<trkpt lat="51.8751099904" lon="-3.4103503227"><ele>664</ele><time>2012-09-08T11:57:52Z</time></trkpt>
<trkpt lat="51.8750885010" lon="-3.4101275126"><ele>660</ele><time>2012-09-08T11:58:09Z</time></trkpt>
<trkpt lat="51.8750890096" lon="-3.4099093437"><ele>657</ele><time>2012-09-08T11:58:22Z</time></trkpt>
<trkpt lat="51.8751464844" lon="-3.4097091675"><ele>655</ele><time>2012-09-08T11:58:34Z</time></trkpt>
<trkpt lat="51.8751014709" lon="-3.4094986598"><ele>651</ele><time>2012-09-08T11:58:47Z</time></trkpt>
<trkpt lat="51.8750324885" lon="-3.4093101819"><ele>646</ele><time>2012-09-08T11:59:05Z</time></trkpt>
<trkpt lat="51.8750298182" lon="-3.4090721766"><ele>645</ele><time>2012-09-08T11:59:15Z</time></trkpt>
<trkpt lat="51.8750329971" lon="-3.4088493347"><ele>639</ele><time>2012-09-08T11:59:42Z</time></trkpt>
<trkpt lat="51.8750015259" lon="-3.4086331685"><ele>634</ele><time>2012-09-08T12:00:06Z</time></trkpt>
<trkpt lat="51.8749663035" lon="-3.4084104856"><ele>628</ele><time>2012-09-08T12:00:23Z</time></trkpt>
<trkpt lat="51.8749301910" lon="-3.4081976573"><ele>619</ele><time>2012-09-08T12:01:12Z</time></trkpt>
<trkpt lat="51.8749219894" lon="-3.4079750061"><ele>613</ele><time>2012-09-08T12:01:28Z</time></trkpt>
<trkpt lat="51.8749598185" lon="-3.4077558200"><ele>611</ele><time>2012-09-08T12:01:53Z</time></trkpt>
<trkpt lat="51.8749986649" lon="-3.4075291634"><ele>609</ele><time>2012-09-08T12:02:05Z</time></trkpt>
<trkpt lat="51.8750219981" lon="-3.4073101679"><ele>608</ele><time>2012-09-08T12:02:17Z</time></trkpt>
<trkpt lat="51.8750353495" lon="-3.4070898374"><ele>607</ele><time>2012-09-08T12:02:28Z</time></trkpt>
<trkpt lat="51.8750654856" lon="-3.4068608284"><ele>607</ele><time>2012-09-08T12:02:40Z</time></trkpt>
<trkpt lat="51.8750839869" lon="-3.4066388448"><ele>607</ele><time>2012-09-08T12:02:51Z</time></trkpt>
<trkpt lat="51.8751464844" lon="-3.4064310074"><ele>607</ele><time>2012-09-08T12:03:05Z</time></trkpt>
<trkpt lat="51.8751996358" lon="-3.4062155088"><ele>607</ele><time>2012-09-08T12:03:17Z</time></trkpt>
<trkpt lat="51.8752110163" lon="-3.4059960047"><ele>608</ele><time>2012-09-08T12:03:32Z</time></trkpt>
<trkpt lat="51.8751995087" lon="-3.4057779948"><ele>609</ele><time>2012-09-08T12:03:54Z</time></trkpt>
<trkpt lat="51.8752108256" lon="-3.4055520058"><ele>610</ele><time>2012-09-08T12:04:12Z</time></trkpt>
<trkpt lat="51.8751585007" lon="-3.4053409894"><ele>612</ele><time>2012-09-08T12:04:31Z</time></trkpt>
<trkpt lat="51.8751916885" lon="-3.4051089923"><ele>615</ele><time>2012-09-08T12:04:50Z</time></trkpt>
<trkpt lat="51.8751603444" lon="-3.4048801740"><ele>618</ele><time>2012-09-08T12:05:18Z</time></trkpt>
<trkpt lat="51.8751683553" lon="-3.4046626727"><ele>624</ele><time>2012-09-08T12:05:58Z</time></trkpt>
<trkpt lat="51.8751516978" lon="-3.4044454892"><ele>627</ele><time>2012-09-08T12:06:18Z</time></trkpt>
<trkpt lat="51.8751443227" lon="-3.4042200089"><ele>632</ele><time>2012-09-08T12:06:50Z</time></trkpt>
<trkpt lat="51.8751948039" lon="-3.4039978345"><ele>637</ele><time>2012-09-08T12:07:23Z</time></trkpt>
<trkpt lat="51.8752454758" lon="-3.4037928263"><ele>645</ele><time>2012-09-08T12:07:50Z</time></trkpt>
<trkpt lat="51.8752344767" lon="-3.4035655022"><ele>651</ele><time>2012-09-08T12:08:16Z</time></trkpt>
<trkpt lat="51.8752220154" lon="-3.4033466657"><ele>656</ele><time>2012-09-08T12:08:44Z</time></trkpt>
<trkpt lat="51.8752089818" lon="-3.4031165123"><ele>661</ele><time>2012-09-08T12:09:01Z</time></trkpt>
<trkpt lat="51.8752410253" lon="-3.4029026667"><ele>668</ele><time>2012-09-08T12:09:17Z</time></trkpt>
<trkpt lat="51.8753188451" lon="-3.4027243296"><ele>673</ele><time>2012-09-08T12:09:31Z</time></trkpt>
<trkpt lat="51.8753748576" lon="-3.4025081635"><ele>677</ele><time>2012-09-08T12:09:45Z</time></trkpt>
<trkpt lat="51.8754386902" lon="-3.4023134867"><ele>680</ele><time>2012-09-08T12:10:05Z</time></trkpt>
<trkpt lat="51.8754074732" lon="-3.4021003405"><ele>684</ele><time>2012-09-08T12:10:24Z</time></trkpt>
<trkpt lat="51.8754259745" lon="-3.4018811544"><ele>689</ele><time>2012-09-08T12:10:54Z</time></trkpt>
<trkpt lat="51.8755025228" lon="-3.4016973178"><ele>694</ele><time>2012-09-08T12:11:08Z</time></trkpt>
<trkpt lat="51.8755996704" lon="-3.4015453339"><ele>697</ele><time>2012-09-08T12:11:18Z</time></trkpt>
<trkpt lat="51.8756843567" lon="-3.4013576825"><ele>700</ele><time>2012-09-08T12:11:29Z</time></trkpt>
<trkpt lat="51.8757715225" lon="-3.4011761665"><ele>702</ele><time>2012-09-08T12:11:41Z</time></trkpt>
<trkpt lat="51.8758928299" lon="-3.4010453224"><ele>704</ele><time>2012-09-08T12:11:54Z</time></trkpt>
<trkpt lat="51.8760229747" lon="-3.4009625117"><ele>706</ele><time>2012-09-08T12:12:06Z</time></trkpt>
<trkpt lat="51.8761636734" lon="-3.4009361585"><ele>712</ele><time>2012-09-08T12:12:53Z</time></trkpt>
<trkpt lat="51.8762959798" lon="-3.4008524895"><ele>717</ele><time>2012-09-08T12:22:18Z</time></trkpt>
<trkpt lat="51.8764293035" lon="-3.4007853190"><ele>715</ele><time>2012-09-08T12:22:37Z</time></trkpt>
<trkpt lat="51.8765496572" lon="-3.4006688436"><ele>713</ele><time>2012-09-08T12:23:33Z</time></trkpt>
<trkpt lat="51.8766816457" lon="-3.4005960147"><ele>710</ele><time>2012-09-08T12:24:34Z</time></trkpt>
<trkpt lat="51.8768148422" lon="-3.4005125046"><ele>707</ele><time>2012-09-08T12:24:49Z</time></trkpt>
<trkpt lat="51.8769315084" lon="-3.4003953298"><ele>703</ele><time>2012-09-08T12:55:27Z</time></trkpt>
<trkpt lat="51.8769921621" lon="-3.4001981735"><ele>701</ele><time>2012-09-08T12:56:00Z</time></trkpt>
<trkpt lat="51.8771141688" lon="-3.4000676791"><ele>699</ele><time>2012-09-08T12:56:15Z</time></trkpt>
<trkpt lat="51.8772511800" lon="-3.4000103315"><ele>697</ele><time>2012-09-08T12:56:32Z</time></trkpt>
<trkpt lat="51.8773853302" lon="-3.3999183337"><ele>694</ele><time>2012-09-08T12:56:45Z</time></trkpt>
<trkpt lat="51.8775208155" lon="-3.3998579979"><ele>691</ele><time>2012-09-08T12:56:59Z</time></trkpt>
<trkpt lat="51.8776315053" lon="-3.3997126579"><ele>689</ele><time>2012-09-08T12:57:14Z</time></trkpt>
<trkpt lat="51.8777593613" lon="-3.3996231715"><ele>687</ele><time>2012-09-08T12:57:29Z</time></trkpt>
<trkpt lat="51.8778729757" lon="-3.3994948387"><ele>684</ele><time>2012-09-08T12:57:46Z</time></trkpt>
<trkpt lat="51.8780003230" lon="-3.3994158427"><ele>682</ele><time>2012-09-08T12:58:02Z</time></trkpt>
<trkpt lat="51.8781203588" lon="-3.3992954890"><ele>679</ele><time>2012-09-08T12:58:16Z</time></trkpt>
<trkpt lat="51.8782461802" lon="-3.3991903305"><ele>676</ele><time>2012-09-08T12:58:33Z</time></trkpt>
<trkpt lat="51.8783821742" lon="-3.3991161664"><ele>674</ele><time>2012-09-08T12:58:46Z</time></trkpt>
<trkpt lat="51.8785101573" lon="-3.3990379969"><ele>672</ele><time>2012-09-08T12:58:58Z</time></trkpt>
<trkpt lat="51.8786478043" lon="-3.3989718437"><ele>669</ele><time>2012-09-08T12:59:13Z</time></trkpt>
<trkpt lat="51.8787686666" lon="-3.3988751729"><ele>668</ele><time>2012-09-08T12:59:28Z</time></trkpt>
<trkpt lat="51.8788976669" lon="-3.3987781525"><ele>668</ele><time>2012-09-08T12:59:40Z</time></trkpt>
<trkpt lat="51.8790295283" lon="-3.3986755053"><ele>667</ele><time>2012-09-08T12:59:55Z</time></trkpt>
<trkpt lat="51.8791691462" lon="-3.3986115138"><ele>667</ele><time>2012-09-08T13:00:10Z</time></trkpt>
<trkpt lat="51.8793181737" lon="-3.3986001650"><ele>667</ele><time>2012-09-08T13:00:21Z</time></trkpt>
<trkpt lat="51.8794543584" lon="-3.3986189842"><ele>662</ele><time>2012-09-08T13:00:34Z</time></trkpt>
<trkpt lat="51.8795943578" lon="-3.3985523224"><ele>660</ele><time>2012-09-08T13:00:47Z</time></trkpt>
<trkpt lat="51.8797180176" lon="-3.3984553337"><ele>658</ele><time>2012-09-08T13:01:00Z</time></trkpt>
<trkpt lat="51.8798481623" lon="-3.3983853340"><ele>655</ele><time>2012-09-08T13:01:14Z</time></trkpt>
<trkpt lat="51.8799784978" lon="-3.3983091672"><ele>654</ele><time>2012-09-08T13:01:29Z</time></trkpt>
<trkpt lat="51.8801015218" lon="-3.3982080142"><ele>652</ele><time>2012-09-08T13:01:41Z</time></trkpt>
<trkpt lat="51.8802284877" lon="-3.3981289864"><ele>651</ele><time>2012-09-08T13:01:53Z</time></trkpt>
<trkpt lat="51.8803626378" lon="-3.3980563482"><ele>650</ele><time>2012-09-08T13:02:10Z</time></trkpt>
<trkpt lat="51.8804939906" lon="-3.3979976654"><ele>649</ele><time>2012-09-08T13:02:23Z</time></trkpt>
<trkpt lat="51.8806246440" lon="-3.3979413350"><ele>648</ele><time>2012-09-08T13:02:37Z</time></trkpt>
<trkpt lat="51.8807696660" lon="-3.3979023298"><ele>647</ele><time>2012-09-08T13:02:59Z</time></trkpt>
<trkpt lat="51.8808951696" lon="-3.3978226662"><ele>646</ele><time>2012-09-08T13:03:10Z</time></trkpt>
<trkpt lat="51.8810136795" lon="-3.3977061590"><ele>646</ele><time>2012-09-08T13:03:25Z</time></trkpt>
<trkpt lat="51.8811501821" lon="-3.3976296743"><ele>645</ele><time>2012-09-08T13:03:39Z</time></trkpt>
<trkpt lat="51.8812741597" lon="-3.3975319862"><ele>644</ele><time>2012-09-08T13:03:52Z</time></trkpt>
<trkpt lat="51.8813946406" lon="-3.3974181811"><ele>643</ele><time>2012-09-08T13:04:05Z</time></trkpt>
<trkpt lat="51.8815170288" lon="-3.3972920100"><ele>643</ele><time>2012-09-08T13:04:18Z</time></trkpt>
<trkpt lat="51.8816318512" lon="-3.3971726735"><ele>642</ele><time>2012-09-08T13:04:31Z</time></trkpt>
<trkpt lat="51.8817701976" lon="-3.3971093178"><ele>642</ele><time>2012-09-08T13:04:43Z</time></trkpt>
<trkpt lat="51.8818890254" lon="-3.3969849904"><ele>641</ele><time>2012-09-08T13:04:55Z</time></trkpt>
<trkpt lat="51.8820088069" lon="-3.3968831698"><ele>641</ele><time>2012-09-08T13:05:08Z</time></trkpt>
<trkpt lat="51.8821286519" lon="-3.3967801730"><ele>640</ele><time>2012-09-08T13:05:20Z</time></trkpt>
<trkpt lat="51.8822576523" lon="-3.3967008273"><ele>640</ele><time>2012-09-08T13:05:32Z</time></trkpt>
<trkpt lat="51.8823745092" lon="-3.3965916634"><ele>639</ele><time>2012-09-08T13:05:45Z</time></trkpt>
<trkpt lat="51.8825048447" lon="-3.3965063413"><ele>639</ele><time>2012-09-08T13:05:57Z</time></trkpt>
<trkpt lat="51.8826246897" lon="-3.3963791529"><ele>639</ele><time>2012-09-08T13:06:12Z</time></trkpt>
<trkpt lat="51.8827414831" lon="-3.3962605158"><ele>638</ele><time>2012-09-08T13:06:25Z</time></trkpt>
<trkpt lat="51.8828784943" lon="-3.3961741765"><ele>638</ele><time>2012-09-08T13:06:38Z</time></trkpt>
<trkpt lat="51.8829961777" lon="-3.3960411708"><ele>638</ele><time>2012-09-08T13:06:51Z</time></trkpt>
<trkpt lat="51.8831171672" lon="-3.3959349950"><ele>637</ele><time>2012-09-08T13:07:03Z</time></trkpt>
<trkpt lat="51.8832405090" lon="-3.3958431562"><ele>637</ele><time>2012-09-08T13:07:15Z</time></trkpt>
<trkpt lat="51.8833541870" lon="-3.3957126617"><ele>636</ele><time>2012-09-08T13:07:28Z</time></trkpt>
<trkpt lat="51.8834575017" lon="-3.3955651601"><ele>636</ele><time>2012-09-08T13:07:41Z</time></trkpt>
<trkpt lat="51.8835824966" lon="-3.3954625130"><ele>636</ele><time>2012-09-08T13:07:53Z</time></trkpt>
<trkpt lat="51.8837028503" lon="-3.3953535080"><ele>635</ele><time>2012-09-08T13:08:06Z</time></trkpt>
<trkpt lat="51.8838266373" lon="-3.3952520053"><ele>635</ele><time>2012-09-08T13:08:18Z</time></trkpt>
<trkpt lat="51.8839516958" lon="-3.3951415062"><ele>635</ele><time>2012-09-08T13:08:30Z</time></trkpt>
<trkpt lat="51.8840555191" lon="-3.3950000127"><ele>634</ele><time>2012-09-08T13:08:42Z</time></trkpt>
<trkpt lat="51.8841861725" lon="-3.3949106534"><ele>634</ele><time>2012-09-08T13:08:53Z</time></trkpt>
<trkpt lat="51.8843060176" lon="-3.3947849909"><ele>634</ele><time>2012-09-08T13:09:05Z</time></trkpt>
<trkpt lat="51.8844403585" lon="-3.3946839968"><ele>634</ele><time>2012-09-08T13:09:17Z</time></trkpt>
<trkpt lat="51.8845563253" lon="-3.3945679983"><ele>634</ele><time>2012-09-08T13:09:28Z</time></trkpt>
<trkpt lat="51.8846723557" lon="-3.3944408417"><ele>634</ele><time>2012-09-08T13:09:41Z</time></trkpt>
<trkpt lat="51.8847841899" lon="-3.3943061511"><ele>633</ele><time>2012-09-08T13:09:53Z</time></trkpt>
<trkpt lat="51.8849056880" lon="-3.3942055066"><ele>633</ele><time>2012-09-08T13:10:04Z</time></trkpt>
<trkpt lat="51.8850376765" lon="-3.3940991720"><ele>633</ele><time>2012-09-08T13:10:17Z</time></trkpt>
<trkpt lat="51.8851598104" lon="-3.3939878464"><ele>632</ele><time>2012-09-08T13:10:29Z</time></trkpt>
<trkpt lat="51.8852841695" lon="-3.3938984871"><ele>632</ele><time>2012-09-08T13:10:41Z</time></trkpt>
<trkpt lat="51.8854134878" lon="-3.3937906583"><ele>631</ele><time>2012-09-08T13:10:53Z</time></trkpt>
<trkpt lat="51.8855398178" lon="-3.3936979930"><ele>630</ele><time>2012-09-08T13:11:07Z</time></trkpt>
<trkpt lat="51.8856655121" lon="-3.3936036746"><ele>630</ele><time>2012-09-08T13:11:19Z</time></trkpt>
<trkpt lat="51.8858018239" lon="-3.3935158412"><ele>629</ele><time>2012-09-08T13:11:31Z</time></trkpt>
<trkpt lat="51.8859278361" lon="-3.3933981578"><ele>628</ele><time>2012-09-08T13:11:43Z</time></trkpt>
<trkpt lat="51.8860498428" lon="-3.3932799975"><ele>628</ele><time>2012-09-08T13:11:57Z</time></trkpt>
<trkpt lat="51.8861768087" lon="-3.3931998253"><ele>627</ele><time>2012-09-08T13:12:09Z</time></trkpt>
<trkpt lat="51.8863124847" lon="-3.3931188265"><ele>626</ele><time>2012-09-08T13:12:21Z</time></trkpt>
<trkpt lat="51.8864328384" lon="-3.3930069923"><ele>626</ele><time>2012-09-08T13:12:33Z</time></trkpt>
<trkpt lat="51.8865538279" lon="-3.3929068247"><ele>625</ele><time>2012-09-08T13:12:44Z</time></trkpt>
<trkpt lat="51.8866836548" lon="-3.3928296725"><ele>624</ele><time>2012-09-08T13:12:57Z</time></trkpt>
<trkpt lat="51.8868220011" lon="-3.3927466710"><ele>623</ele><time>2012-09-08T13:13:09Z</time></trkpt>
<trkpt lat="51.8869501750" lon="-3.3926528295"><ele>623</ele><time>2012-09-08T13:13:21Z</time></trkpt>
<trkpt lat="51.8870783488" lon="-3.3925586700"><ele>622</ele><time>2012-09-08T13:13:33Z</time></trkpt>
<trkpt lat="51.8872136434" lon="-3.3924848239"><ele>621</ele><time>2012-09-08T13:13:46Z</time></trkpt>
<trkpt lat="51.8873433431" lon="-3.3923893293"><ele>620</ele><time>2012-09-08T13:14:01Z</time></trkpt>
<trkpt lat="51.8874851863" lon="-3.3923378309"><ele>619</ele><time>2012-09-08T13:14:14Z</time></trkpt>
<trkpt lat="51.8876176834" lon="-3.3922611554"><ele>615</ele><time>2012-09-08T13:15:40Z</time></trkpt>
<trkpt lat="51.8877471924" lon="-3.3921596527"><ele>615</ele><time>2012-09-08T13:15:53Z</time></trkpt>
<trkpt lat="51.8878871918" lon="-3.3920666695"><ele>613</ele><time>2012-09-08T13:16:08Z</time></trkpt>
<trkpt lat="51.8880221685" lon="-3.3919641813"><ele>612</ele><time>2012-09-08T13:16:18Z</time></trkpt>
<trkpt lat="51.8881621679" lon="-3.3919341723"><ele>612</ele><time>2012-09-08T13:16:30Z</time></trkpt>
<trkpt lat="51.8882991791" lon="-3.3919139862"><ele>611</ele><time>2012-09-08T13:16:42Z</time></trkpt>
<trkpt lat="51.8884381612" lon="-3.3918864886"><ele>610</ele><time>2012-09-08T13:16:55Z</time></trkpt>
<trkpt lat="51.8885771434" lon="-3.3918243408"><ele>609</ele><time>2012-09-08T13:17:07Z</time></trkpt>
<trkpt lat="51.8887068431" lon="-3.3917383194"><ele>608</ele><time>2012-09-08T13:17:19Z</time></trkpt>
<trkpt lat="51.8888303121" lon="-3.3916203181"><ele>607</ele><time>2012-09-08T13:17:31Z</time></trkpt>
<trkpt lat="51.8889481862" lon="-3.3917449951"><ele>606</ele><time>2012-09-08T13:17:50Z</time></trkpt>
<trkpt lat="51.8890775045" lon="-3.3916614850"><ele>604</ele><time>2012-09-08T13:18:05Z</time></trkpt>
<trkpt lat="51.8892168045" lon="-3.3915969849"><ele>602</ele><time>2012-09-08T13:18:18Z</time></trkpt>
<trkpt lat="51.8893238068" lon="-3.3914349874"><ele>601</ele><time>2012-09-08T13:18:30Z</time></trkpt>
<trkpt lat="51.8894353231" lon="-3.3913008372"><ele>599</ele><time>2012-09-08T13:18:43Z</time></trkpt>
<trkpt lat="51.8895493189" lon="-3.3911793391"><ele>598</ele><time>2012-09-08T13:18:54Z</time></trkpt>
<trkpt lat="51.8896579742" lon="-3.3910449982"><ele>597</ele><time>2012-09-08T13:19:06Z</time></trkpt>
<trkpt lat="51.8897746404" lon="-3.3909268379"><ele>595</ele><time>2012-09-08T13:19:18Z</time></trkpt>
<trkpt lat="51.8899049759" lon="-3.3908478419"><ele>592</ele><time>2012-09-08T13:19:32Z</time></trkpt>
<trkpt lat="51.8900164922" lon="-3.3907246590"><ele>590</ele><time>2012-09-08T13:19:45Z</time></trkpt>
<trkpt lat="51.8901234945" lon="-3.3905749957"><ele>588</ele><time>2012-09-08T13:19:59Z</time></trkpt>
<trkpt lat="51.8902371724" lon="-3.3904514949"><ele>585</ele><time>2012-09-08T13:20:11Z</time></trkpt>
<trkpt lat="51.8903646469" lon="-3.3903409958"><ele>583</ele><time>2012-09-08T13:20:24Z</time></trkpt>
<trkpt lat="51.8904729843" lon="-3.3902111689"><ele>580</ele><time>2012-09-08T13:20:35Z</time></trkpt>
<trkpt lat="51.8905816396" lon="-3.3900773366"><ele>578</ele><time>2012-09-08T13:20:46Z</time></trkpt>
<trkpt lat="51.8907026927" lon="-3.3899689992"><ele>575</ele><time>2012-09-08T13:21:01Z</time></trkpt>
<trkpt lat="51.8908191681" lon="-3.3898425102"><ele>573</ele><time>2012-09-08T13:21:12Z</time></trkpt>
<trkpt lat="51.8909460068" lon="-3.3897254944"><ele>570</ele><time>2012-09-08T13:21:24Z</time></trkpt>
<trkpt lat="51.8910594940" lon="-3.3896068255"><ele>569</ele><time>2012-09-08T13:21:34Z</time></trkpt>
<trkpt lat="51.8911716461" lon="-3.3894783338"><ele>566</ele><time>2012-09-08T13:21:47Z</time></trkpt>
<trkpt lat="51.8912879944" lon="-3.3893493334"><ele>564</ele><time>2012-09-08T13:21:58Z</time></trkpt>
<trkpt lat="51.8914206823" lon="-3.3892889977"><ele>562</ele><time>2012-09-08T13:22:10Z</time></trkpt>
<trkpt lat="51.8915406545" lon="-3.3891743342"><ele>560</ele><time>2012-09-08T13:22:22Z</time></trkpt>
<trkpt lat="51.8916668574" lon="-3.3890775045"><ele>554</ele><time>2012-09-08T13:23:06Z</time></trkpt>
<trkpt lat="51.8917988459" lon="-3.3890049934"><ele>553</ele><time>2012-09-08T13:23:19Z</time></trkpt>
<trkpt lat="51.8919321696" lon="-3.3889401754"><ele>552</ele><time>2012-09-08T13:23:32Z</time></trkpt>
<trkpt lat="51.8920520147" lon="-3.3888393402"><ele>551</ele><time>2012-09-08T13:23:45Z</time></trkpt>
<trkpt lat="51.8921724955" lon="-3.3887213389"><ele>551</ele><time>2012-09-08T13:23:56Z</time></trkpt>
<trkpt lat="51.8922776540" lon="-3.3885796547"><ele>551</ele><time>2012-09-08T13:24:10Z</time></trkpt>
<trkpt lat="51.8923894882" lon="-3.3884521802"><ele>550</ele><time>2012-09-08T13:24:24Z</time></trkpt>
<trkpt lat="51.8925096512" lon="-3.3883501689"><ele>550</ele><time>2012-09-08T13:24:38Z</time></trkpt>
<trkpt lat="51.8926291784" lon="-3.3882328351"><ele>550</ele><time>2012-09-08T13:24:52Z</time></trkpt>
<trkpt lat="51.8927536647" lon="-3.3881195068"><ele>550</ele><time>2012-09-08T13:25:06Z</time></trkpt>
<trkpt lat="51.8928644816" lon="-3.3879870097"><ele>551</ele><time>2012-09-08T13:25:17Z</time></trkpt>
<trkpt lat="51.8929925283" lon="-3.3878890038"><ele>551</ele><time>2012-09-08T13:25:33Z</time></trkpt>
<trkpt lat="51.8931224823" lon="-3.3878039996"><ele>551</ele><time>2012-09-08T13:25:47Z</time></trkpt>
<trkpt lat="51.8932500203" lon="-3.3877323469"><ele>551</ele><time>2012-09-08T13:25:59Z</time></trkpt>
<trkpt lat="51.8933870316" lon="-3.3876618385"><ele>550</ele><time>2012-09-08T13:26:11Z</time></trkpt>
<trkpt lat="51.8935288111" lon="-3.3876255035"><ele>550</ele><time>2012-09-08T13:26:22Z</time></trkpt>
<trkpt lat="51.8936586380" lon="-3.3875453313"><ele>549</ele><time>2012-09-08T13:26:36Z</time></trkpt>
<trkpt lat="51.8937946955" lon="-3.3875159899"><ele>548</ele><time>2012-09-08T13:26:48Z</time></trkpt>
<trkpt lat="51.8939336777" lon="-3.3874941508"><ele>547</ele><time>2012-09-08T13:26:59Z</time></trkpt>
<trkpt lat="51.8940688451" lon="-3.3874298414"><ele>546</ele><time>2012-09-08T13:27:12Z</time></trkpt>
<trkpt lat="51.8942150116" lon="-3.3874013265"><ele>545</ele><time>2012-09-08T13:27:25Z</time></trkpt>
<trkpt lat="51.8943528493" lon="-3.3873363177"><ele>544</ele><time>2012-09-08T13:27:37Z</time></trkpt>
<trkpt lat="51.8944991430" lon="-3.3872821808"><ele>543</ele><time>2012-09-08T13:27:49Z</time></trkpt>
<trkpt lat="51.8946379979" lon="-3.3872645060"><ele>543</ele><time>2012-09-08T13:28:02Z</time></trkpt>
<trkpt lat="51.8947773616" lon="-3.3872928301"><ele>541</ele><time>2012-09-08T13:28:16Z</time></trkpt>
<trkpt lat="51.8949134827" lon="-3.3873066584"><ele>541</ele><time>2012-09-08T13:28:28Z</time></trkpt>
<trkpt lat="51.8950520198" lon="-3.3872986794"><ele>540</ele><time>2012-09-08T13:28:41Z</time></trkpt>
<trkpt lat="51.8951929728" lon="-3.3872989972"><ele>540</ele><time>2012-09-08T13:28:53Z</time></trkpt>
<trkpt lat="51.8953318278" lon="-3.3873346647"><ele>540</ele><time>2012-09-08T13:29:06Z</time></trkpt>
<trkpt lat="51.8954731623" lon="-3.3873424848"><ele>539</ele><time>2012-09-08T13:29:19Z</time></trkpt>
<trkpt lat="51.8956098557" lon="-3.3873148282"><ele>539</ele><time>2012-09-08T13:29:33Z</time></trkpt>
<trkpt lat="51.8957568487" lon="-3.3873118401"><ele>538</ele><time>2012-09-08T13:29:46Z</time></trkpt>
<trkpt lat="51.8959008535" lon="-3.3872760137"><ele>538</ele><time>2012-09-08T13:29:59Z</time></trkpt>
<trkpt lat="51.8960378647" lon="-3.3872303327"><ele>538</ele><time>2012-09-08T13:30:13Z</time></trkpt>
<trkpt lat="51.8961765289" lon="-3.3872040113"><ele>538</ele><time>2012-09-08T13:30:26Z</time></trkpt>
<trkpt lat="51.8963176727" lon="-3.3871463458"><ele>537</ele><time>2012-09-08T13:30:41Z</time></trkpt>
<trkpt lat="51.8964504878" lon="-3.3870713234"><ele>537</ele><time>2012-09-08T13:30:56Z</time></trkpt>
<trkpt lat="51.8965761820" lon="-3.3869866689"><ele>537</ele><time>2012-09-08T13:31:06Z</time></trkpt>
<trkpt lat="51.8967163086" lon="-3.3869141579"><ele>536</ele><time>2012-09-08T13:31:20Z</time></trkpt>
<trkpt lat="51.8968484879" lon="-3.3868691762"><ele>536</ele><time>2012-09-08T13:31:33Z</time></trkpt>
<trkpt lat="51.8969688416" lon="-3.3867606799"><ele>535</ele><time>2012-09-08T13:31:45Z</time></trkpt>
<trkpt lat="51.8970933278" lon="-3.3866605123"><ele>535</ele><time>2012-09-08T13:31:57Z</time></trkpt>
<trkpt lat="51.8972094854" lon="-3.3865388234"><ele>534</ele><time>2012-09-08T13:32:09Z</time></trkpt>
<trkpt lat="51.8973241806" lon="-3.3864028295"><ele>533</ele><time>2012-09-08T13:32:23Z</time></trkpt>
<trkpt lat="51.8974541982" lon="-3.3863141696"><ele>532</ele><time>2012-09-08T13:32:37Z</time></trkpt>
<trkpt lat="51.8975743612" lon="-3.3862035116"><ele>532</ele><time>2012-09-08T13:32:48Z</time></trkpt>
<trkpt lat="51.8976769765" lon="-3.3860619863"><ele>531</ele><time>2012-09-08T13:33:00Z</time></trkpt>
<trkpt lat="51.8977958043" lon="-3.3859294891"><ele>530</ele><time>2012-09-08T13:33:12Z</time></trkpt>
<trkpt lat="51.8979014715" lon="-3.3857865016"><ele>529</ele><time>2012-09-08T13:33:25Z</time></trkpt>
<trkpt lat="51.8979990005" lon="-3.3856135050"><ele>528</ele><time>2012-09-08T13:33:38Z</time></trkpt>
<trkpt lat="51.8980829875" lon="-3.3854428291"><ele>527</ele><time>2012-09-08T13:33:50Z</time></trkpt>
<trkpt lat="51.8981489817" lon="-3.3852486610"><ele>524</ele><time>2012-09-08T13:34:15Z</time></trkpt>
<trkpt lat="51.8982373556" lon="-3.3850708326"><ele>521</ele><time>2012-09-08T13:34:42Z</time></trkpt>
<trkpt lat="51.8983101527" lon="-3.3848825137"><ele>520</ele><time>2012-09-08T13:34:54Z</time></trkpt>
<trkpt lat="51.8984066645" lon="-3.3847211520"><ele>519</ele><time>2012-09-08T13:35:06Z</time></trkpt>
<trkpt lat="51.8984981537" lon="-3.3845596631"><ele>519</ele><time>2012-09-08T13:35:17Z</time></trkpt>
<trkpt lat="51.8986026764" lon="-3.3844043414"><ele>518</ele><time>2012-09-08T13:35:29Z</time></trkpt>
<trkpt lat="51.8987040202" lon="-3.3842573484"><ele>516</ele><time>2012-09-08T13:35:42Z</time></trkpt>
<trkpt lat="51.8988166809" lon="-3.3841030121"><ele>515</ele><time>2012-09-08T13:35:57Z</time></trkpt>
<trkpt lat="51.8989180247" lon="-3.3839449883"><ele>515</ele><time>2012-09-08T13:36:09Z</time></trkpt>
<trkpt lat="51.8990168254" lon="-3.3837926547"><ele>514</ele><time>2012-09-08T13:36:21Z</time></trkpt>
<trkpt lat="51.8991013209" lon="-3.3836183230"><ele>513</ele><time>2012-09-08T13:36:32Z</time></trkpt>
<trkpt lat="51.8991828283" lon="-3.3834308306"><ele>512</ele><time>2012-09-08T13:36:45Z</time></trkpt>
<trkpt lat="51.8992633184" lon="-3.3832383474"><ele>512</ele><time>2012-09-08T13:36:58Z</time></trkpt>
<trkpt lat="51.8993600210" lon="-3.3830769857"><ele>511</ele><time>2012-09-08T13:37:12Z</time></trkpt>
<trkpt lat="51.8994606654" lon="-3.3829291662"><ele>509</ele><time>2012-09-08T13:37:25Z</time></trkpt>
<trkpt lat="51.8995711644" lon="-3.3827864965"><ele>507</ele><time>2012-09-08T13:37:39Z</time></trkpt>
<trkpt lat="51.8996840159" lon="-3.3826609929"><ele>506</ele><time>2012-09-08T13:37:53Z</time></trkpt>
<trkpt lat="51.8998126984" lon="-3.3825951576"><ele>504</ele><time>2012-09-08T13:38:06Z</time></trkpt>
<trkpt lat="51.8999353409" lon="-3.3824843407"><ele>502</ele><time>2012-09-08T13:38:19Z</time></trkpt>
<trkpt lat="51.9000420252" lon="-3.3823261579"><ele>501</ele><time>2012-09-08T13:38:33Z</time></trkpt>
<trkpt lat="51.9001544952" lon="-3.3821795146"><ele>500</ele><time>2012-09-08T13:38:47Z</time></trkpt>
<trkpt lat="51.9002391815" lon="-3.3819986661"><ele>498</ele><time>2012-09-08T13:39:00Z</time></trkpt>
<trkpt lat="51.9003236771" lon="-3.3818163236"><ele>496</ele><time>2012-09-08T13:39:13Z</time></trkpt>
<trkpt lat="51.9004018148" lon="-3.3816318194"><ele>495</ele><time>2012-09-08T13:39:25Z</time></trkpt>
<trkpt lat="51.9004856745" lon="-3.3814519882"><ele>493</ele><time>2012-09-08T13:39:39Z</time></trkpt>
<trkpt lat="51.9006135305" lon="-3.3813760122"><ele>491</ele><time>2012-09-08T13:39:51Z</time></trkpt>
<trkpt lat="51.9007313410" lon="-3.3812518438"><ele>489</ele><time>2012-09-08T13:40:04Z</time></trkpt>
<trkpt lat="51.9008370082" lon="-3.3810908318"><ele>486</ele><time>2012-09-08T13:40:18Z</time></trkpt>
<trkpt lat="51.9009400050" lon="-3.3809308370"><ele>484</ele><time>2012-09-08T13:40:32Z</time></trkpt>
<trkpt lat="51.9010586421" lon="-3.3808108330"><ele>482</ele><time>2012-09-08T13:40:45Z</time></trkpt>
<trkpt lat="51.9011521657" lon="-3.3806313197"><ele>479</ele><time>2012-09-08T13:41:01Z</time></trkpt>
<trkpt lat="51.9012038549" lon="-3.3804213206"><ele>476</ele><time>2012-09-08T13:41:17Z</time></trkpt>
<trkpt lat="51.9013004939" lon="-3.3802555084"><ele>474</ele><time>2012-09-08T13:41:31Z</time></trkpt>
<trkpt lat="51.9014015198" lon="-3.3800994873"><ele>472</ele><time>2012-09-08T13:41:44Z</time></trkpt>
<trkpt lat="51.9015298208" lon="-3.3800173442"><ele>471</ele><time>2012-09-08T13:41:56Z</time></trkpt>
<trkpt lat="51.9016243617" lon="-3.3798584938"><ele>468</ele><time>2012-09-08T13:42:11Z</time></trkpt>
<trkpt lat="51.9017198563" lon="-3.3796901703"><ele>465</ele><time>2012-09-08T13:42:26Z</time></trkpt>
<trkpt lat="51.9018210093" lon="-3.3795406659"><ele>461</ele><time>2012-09-08T13:42:40Z</time></trkpt>
<trkpt lat="51.9019563039" lon="-3.3794808388"><ele>459</ele><time>2012-09-08T13:42:53Z</time></trkpt>
<trkpt lat="51.9020528158" lon="-3.3793286641"><ele>457</ele><time>2012-09-08T13:43:05Z</time></trkpt>
<trkpt lat="51.9020999908" lon="-3.3791243235"><ele>454</ele><time>2012-09-08T13:43:17Z</time></trkpt>
<trkpt lat="51.9021685282" lon="-3.3789233208"><ele>451</ele><time>2012-09-08T13:43:33Z</time></trkpt>
<trkpt lat="51.9022699992" lon="-3.3787556648"><ele>448</ele><time>2012-09-08T13:43:46Z</time></trkpt>
<trkpt lat="51.9023499807" lon="-3.3785519918"><ele>445</ele><time>2012-09-08T13:43:59Z</time></trkpt>
<trkpt lat="51.9024260203" lon="-3.3783711751"><ele>443</ele><time>2012-09-08T13:44:10Z</time></trkpt>
<trkpt lat="51.9025054932" lon="-3.3781928380"><ele>441</ele><time>2012-09-08T13:44:23Z</time></trkpt>
<trkpt lat="51.9026128133" lon="-3.3780553182"><ele>439</ele><time>2012-09-08T13:44:37Z</time></trkpt>
<trkpt lat="51.9027226766" lon="-3.3779076576"><ele>436</ele><time>2012-09-08T13:44:51Z</time></trkpt>
<trkpt lat="51.9028350194" lon="-3.3777838389"><ele>434</ele><time>2012-09-08T13:45:05Z</time></trkpt>
<trkpt lat="51.9029566447" lon="-3.3776590029"><ele>432</ele><time>2012-09-08T13:45:17Z</time></trkpt>
<trkpt lat="51.9030504862" lon="-3.3774920146"><ele>428</ele><time>2012-09-08T13:45:34Z</time></trkpt>
<trkpt lat="51.9031700134" lon="-3.3773786545"><ele>425</ele><time>2012-09-08T13:45:46Z</time></trkpt>
<trkpt lat="51.9032816569" lon="-3.3772488276"><ele>422</ele><time>2012-09-08T13:46:04Z</time></trkpt>
<trkpt lat="51.9033946355" lon="-3.3771003405"><ele>419</ele><time>2012-09-08T13:46:16Z</time></trkpt>
<trkpt lat="51.9035165151" lon="-3.3769755046"><ele>417</ele><time>2012-09-08T13:46:31Z</time></trkpt>
<trkpt lat="51.9036270142" lon="-3.3768320084"><ele>414</ele><time>2012-09-08T13:46:46Z</time></trkpt>
<trkpt lat="51.9037265142" lon="-3.3766771634"><ele>411</ele><time>2012-09-08T13:47:00Z</time></trkpt>
<trkpt lat="51.9038238525" lon="-3.3765144984"><ele>407</ele><time>2012-09-08T13:47:16Z</time></trkpt>
<trkpt lat="51.9039561590" lon="-3.3764270147"><ele>405</ele><time>2012-09-08T13:47:28Z</time></trkpt>
<trkpt lat="51.9040611903" lon="-3.3762733459"><ele>401</ele><time>2012-09-08T13:47:45Z</time></trkpt>
<trkpt lat="51.9041730245" lon="-3.3761494954"><ele>398</ele><time>2012-09-08T13:47:58Z</time></trkpt>
<trkpt lat="51.9042903264" lon="-3.3760345141"><ele>395</ele><time>2012-09-08T13:48:11Z</time></trkpt>
<trkpt lat="51.9044006983" lon="-3.3759076754"><ele>392</ele><time>2012-09-08T13:48:23Z</time></trkpt>
<trkpt lat="51.9045176824" lon="-3.3757974943"><ele>389</ele><time>2012-09-08T13:48:37Z</time></trkpt>
<trkpt lat="51.9046291351" lon="-3.3756683350"><ele>386</ele><time>2012-09-08T13:48:51Z</time></trkpt>
<trkpt lat="51.9047493617" lon="-3.3755531629"><ele>383</ele><time>2012-09-08T13:49:08Z</time></trkpt>
<trkpt lat="51.9048438390" lon="-3.3753948212"><ele>375</ele><time>2012-09-08T13:49:35Z</time></trkpt>
<trkpt lat="51.9049694697" lon="-3.3754803340"><ele>367</ele><time>2012-09-08T13:50:26Z</time></trkpt>
<trkpt lat="51.9050076803" lon="-3.3756910006"><ele>366</ele><time>2012-09-08T13:50:41Z</time></trkpt>
<trkpt lat="51.9050933202" lon="-3.3758743286"><ele>364</ele><time>2012-09-08T13:50:58Z</time></trkpt>
<trkpt lat="51.9051315308" lon="-3.3760840098"><ele>362</ele><time>2012-09-08T13:51:14Z</time></trkpt>
<trkpt lat="51.9051996867" lon="-3.3762744904"><ele>360</ele><time>2012-09-08T13:51:28Z</time></trkpt>
<trkpt lat="51.9052509944" lon="-3.3764800072"><ele>358</ele><time>2012-09-08T13:51:42Z</time></trkpt>
<trkpt lat="51.9053198497" lon="-3.3766728401"><ele>355</ele><time>2012-09-08T13:51:57Z</time></trkpt>
<trkpt lat="51.9053496679" lon="-3.3768866539"><ele>346</ele><time>2012-09-08T13:52:39Z</time></trkpt>
<trkpt lat="51.9052426656" lon="-3.3770209948"><ele>333</ele><time>2012-09-08T13:55:26Z</time></trkpt>
<trkpt lat="51.9051946640" lon="-3.3772280057"><ele>333</ele><time>2012-09-08T13:55:39Z</time></trkpt>
<trkpt lat="51.9051543554" lon="-3.3774451574"><ele>333</ele><time>2012-09-08T13:55:51Z</time></trkpt>
<trkpt lat="51.9051029841" lon="-3.3776561737"><ele>334</ele><time>2012-09-08T13:56:04Z</time></trkpt>
<trkpt lat="51.9050611496" lon="-3.3778664907"><ele>334</ele><time>2012-09-08T13:56:16Z</time></trkpt>
<trkpt lat="51.9050128301" lon="-3.3780818303"><ele>334</ele><time>2012-09-08T13:56:32Z</time></trkpt>
<trkpt lat="51.9049634933" lon="-3.3783033371"><ele>335</ele><time>2012-09-08T13:56:46Z</time></trkpt>
<trkpt lat="51.9049013138" lon="-3.3784983317"><ele>335</ele><time>2012-09-08T13:56:59Z</time></trkpt>
<trkpt lat="51.9048686981" lon="-3.3787210147"><ele>336</ele><time>2012-09-08T13:57:18Z</time></trkpt>
<trkpt lat="51.9047955195" lon="-3.3789085070"><ele>336</ele><time>2012-09-08T13:57:35Z</time></trkpt>
<trkpt lat="51.9047475179" lon="-3.3791128476"><ele>338</ele><time>2012-09-08T13:57:51Z</time></trkpt>
<trkpt lat="51.9046974818" lon="-3.3793221792"><ele>339</ele><time>2012-09-08T13:58:07Z</time></trkpt>
<trkpt lat="51.9046630224" lon="-3.3795445124"><ele>340</ele><time>2012-09-08T13:58:22Z</time></trkpt>
<trkpt lat="51.9045970281" lon="-3.3797446569"><ele>341</ele><time>2012-09-08T13:58:39Z</time></trkpt>
<trkpt lat="51.9046216965" lon="-3.3799668312"><ele>342</ele><time>2012-09-08T13:58:53Z</time></trkpt>
<trkpt lat="51.9045989990" lon="-3.3801968257"><ele>342</ele><time>2012-09-08T13:59:08Z</time></trkpt>
<trkpt lat="51.9045206706" lon="-3.3803814888"><ele>343</ele><time>2012-09-08T13:59:21Z</time></trkpt>
<trkpt lat="51.9044653575" lon="-3.3805875142"><ele>344</ele><time>2012-09-08T13:59:39Z</time></trkpt>
<trkpt lat="51.9044088364" lon="-3.3807918231"><ele>344</ele><time>2012-09-08T13:59:57Z</time></trkpt>
<trkpt lat="51.9043888092" lon="-3.3810228348"><ele>345</ele><time>2012-09-08T14:00:10Z</time></trkpt>
<trkpt lat="51.9043076833" lon="-3.3812028249"><ele>345</ele><time>2012-09-08T14:00:25Z</time></trkpt>
<trkpt lat="51.9042441686" lon="-3.3814130147"><ele>346</ele><time>2012-09-08T14:00:41Z</time></trkpt>
<trkpt lat="51.9042001724" lon="-3.3816203435"><ele>347</ele><time>2012-09-08T14:00:56Z</time></trkpt>
<trkpt lat="51.9041385015" lon="-3.3818236669"><ele>348</ele><time>2012-09-08T14:01:10Z</time></trkpt>
<trkpt lat="51.9040751775" lon="-3.3820218404"><ele>349</ele><time>2012-09-08T14:01:24Z</time></trkpt>
<trkpt lat="51.9040044785" lon="-3.3822221756"><ele>350</ele><time>2012-09-08T14:01:38Z</time></trkpt>
<trkpt lat="51.9039721807" lon="-3.3824359894"><ele>351</ele><time>2012-09-08T14:01:56Z</time></trkpt>
<trkpt lat="51.9039044698" lon="-3.3826360067"><ele>352</ele><time>2012-09-08T14:02:11Z</time></trkpt>
<trkpt lat="51.9038788478" lon="-3.3828575134"><ele>352</ele><time>2012-09-08T14:02:23Z</time></trkpt>
<trkpt lat="51.9038363139" lon="-3.3830706596"><ele>353</ele><time>2012-09-08T14:02:34Z</time></trkpt>
<trkpt lat="51.9037871679" lon="-3.3832885106"><ele>353</ele><time>2012-09-08T14:02:46Z</time></trkpt>
<trkpt lat="51.9037429810" lon="-3.3835016569"><ele>353</ele><time>2012-09-08T14:02:59Z</time></trkpt>
<trkpt lat="51.9037043254" lon="-3.3837105115"><ele>354</ele><time>2012-09-08T14:03:13Z</time></trkpt>
<trkpt lat="51.9036495209" lon="-3.3839115143"><ele>354</ele><time>2012-09-08T14:03:26Z</time></trkpt>
<trkpt lat="51.9035913467" lon="-3.3841158231"><ele>355</ele><time>2012-09-08T14:03:37Z</time></trkpt>
<trkpt lat="51.9035293579" lon="-3.3843188286"><ele>355</ele><time>2012-09-08T14:03:49Z</time></trkpt>
<trkpt lat="51.9034771601" lon="-3.3845248222"><ele>356</ele><time>2012-09-08T14:04:02Z</time></trkpt>
<trkpt lat="51.9034360250" lon="-3.3847366651"><ele>357</ele><time>2012-09-08T14:04:15Z</time></trkpt>
<trkpt lat="51.9033966700" lon="-3.3849526723"><ele>357</ele><time>2012-09-08T14:04:28Z</time></trkpt>
<trkpt lat="51.9033266703" lon="-3.3851476669"><ele>357</ele><time>2012-09-08T14:04:39Z</time></trkpt>
<trkpt lat="51.9032991409" lon="-3.3853709857"><ele>358</ele><time>2012-09-08T14:04:53Z</time></trkpt>
<trkpt lat="51.9032446543" lon="-3.3855843226"><ele>358</ele><time>2012-09-08T14:05:07Z</time></trkpt>
<trkpt lat="51.9032041550" lon="-3.3858056704"><ele>358</ele><time>2012-09-08T14:05:21Z</time></trkpt>
<trkpt lat="51.9031469981" lon="-3.3860171636"><ele>358</ele><time>2012-09-08T14:05:33Z</time></trkpt>
<trkpt lat="51.9031216939" lon="-3.3862484932"><ele>358</ele><time>2012-09-08T14:05:47Z</time></trkpt>
<trkpt lat="51.9030691783" lon="-3.3864521662"><ele>358</ele><time>2012-09-08T14:05:58Z</time></trkpt>
<trkpt lat="51.9030203501" lon="-3.3866701762"><ele>358</ele><time>2012-09-08T14:06:13Z</time></trkpt>
<trkpt lat="51.9029785156" lon="-3.3868861516"><ele>358</ele><time>2012-09-08T14:06:28Z</time></trkpt>
<trkpt lat="51.9029260000" lon="-3.3870979945"><ele>358</ele><time>2012-09-08T14:06:44Z</time></trkpt>
<trkpt lat="51.9028553645" lon="-3.3872925123"><ele>358</ele><time>2012-09-08T14:06:57Z</time></trkpt>
<trkpt lat="51.9027673086" lon="-3.3874659856"><ele>358</ele><time>2012-09-08T14:07:13Z</time></trkpt>
<trkpt lat="51.9027228038" lon="-3.3876823425"><ele>358</ele><time>2012-09-08T14:07:28Z</time></trkpt>
<trkpt lat="51.9026315053" lon="-3.3878466606"><ele>357</ele><time>2012-09-08T14:07:42Z</time></trkpt>
<trkpt lat="51.9025783539" lon="-3.3880491575"><ele>357</ele><time>2012-09-08T14:08:02Z</time></trkpt>
<trkpt lat="51.9025058111" lon="-3.3882360140"><ele>357</ele><time>2012-09-08T14:08:17Z</time></trkpt>
<trkpt lat="51.9024215062" lon="-3.3884201686"><ele>357</ele><time>2012-09-08T14:08:29Z</time></trkpt>
<trkpt lat="51.9023201625" lon="-3.3885695140"><ele>357</ele><time>2012-09-08T14:08:41Z</time></trkpt>
<trkpt lat="51.9022098541" lon="-3.3887173335"><ele>357</ele><time>2012-09-08T14:08:54Z</time></trkpt>
<trkpt lat="51.9021223068" lon="-3.3888975143"><ele>358</ele><time>2012-09-08T14:09:09Z</time></trkpt>
<trkpt lat="51.9020273209" lon="-3.3890861511"><ele>358</ele><time>2012-09-08T14:09:22Z</time></trkpt>
<trkpt lat="51.9019583384" lon="-3.3892776807"><ele>360</ele><time>2012-09-08T14:09:37Z</time></trkpt>
<trkpt lat="51.9018840154" lon="-3.3894753456"><ele>361</ele><time>2012-09-08T14:09:48Z</time></trkpt>
<trkpt lat="51.9018148422" lon="-3.3896629969"><ele>363</ele><time>2012-09-08T14:10:05Z</time></trkpt>
<trkpt lat="51.9017408371" lon="-3.3898475011"><ele>365</ele><time>2012-09-08T14:10:19Z</time></trkpt>
<trkpt lat="51.9016324997" lon="-3.3900353432"><ele>366</ele><time>2012-09-08T14:10:29Z</time></trkpt>
<trkpt lat="51.9015366872" lon="-3.3902205149"><ele>366</ele><time>2012-09-08T14:10:41Z</time></trkpt>
<trkpt lat="51.9014413198" lon="-3.3903818448"><ele>366</ele><time>2012-09-08T14:10:53Z</time></trkpt>
<trkpt lat="51.9013458252" lon="-3.3905383428"><ele>366</ele><time>2012-09-08T14:11:05Z</time></trkpt>
<trkpt lat="51.9013109843" lon="-3.3907583237"><ele>368</ele><time>2012-09-08T14:11:24Z</time></trkpt>
<trkpt lat="51.9012573242" lon="-3.3909669876"><ele>369</ele><time>2012-09-08T14:11:37Z</time></trkpt>
<trkpt lat="51.9011814753" lon="-3.3911483447"><ele>369</ele><time>2012-09-08T14:11:48Z</time></trkpt>
<trkpt lat="51.9010648092" lon="-3.3912925084"><ele>369</ele><time>2012-09-08T14:11:59Z</time></trkpt>
<trkpt lat="51.9010025024" lon="-3.3914933205"><ele>369</ele><time>2012-09-08T14:12:13Z</time></trkpt>
<trkpt lat="51.9009251912" lon="-3.3916744868"><ele>370</ele><time>2012-09-08T14:12:25Z</time></trkpt>
<trkpt lat="51.9009143194" lon="-3.3919036547"><ele>369</ele><time>2012-09-08T14:12:38Z</time></trkpt>
<trkpt lat="51.9008415222" lon="-3.3920943260"><ele>369</ele><time>2012-09-08T14:12:50Z</time></trkpt>
<trkpt lat="51.9007213593" lon="-3.3922283490"><ele>369</ele><time>2012-09-08T14:13:09Z</time></trkpt>
<trkpt lat="51.9006233215" lon="-3.3923870087"><ele>369</ele><time>2012-09-08T14:13:25Z</time></trkpt>
<trkpt lat="51.9005304972" lon="-3.3925499916"><ele>369</ele><time>2012-09-08T14:13:38Z</time></trkpt>
<trkpt lat="51.9004273097" lon="-3.3927016576"><ele>369</ele><time>2012-09-08T14:13:52Z</time></trkpt>
<trkpt lat="51.9003171921" lon="-3.3928338369"><ele>369</ele><time>2012-09-08T14:14:04Z</time></trkpt>
<trkpt lat="51.9001993179" lon="-3.3929513295"><ele>369</ele><time>2012-09-08T14:14:17Z</time></trkpt>
<trkpt lat="51.9000908534" lon="-3.3930866559"><ele>369</ele><time>2012-09-08T14:14:29Z</time></trkpt>
<trkpt lat="51.8999661764" lon="-3.3931868235"><ele>369</ele><time>2012-09-08T14:14:40Z</time></trkpt>
<trkpt lat="51.8998455048" lon="-3.3933073362"><ele>369</ele><time>2012-09-08T14:14:55Z</time></trkpt>
<trkpt lat="51.8997409821" lon="-3.3934453328"><ele>369</ele><time>2012-09-08T14:15:11Z</time></trkpt>
<trkpt lat="51.8996483485" lon="-3.3936415037"><ele>369</ele><time>2012-09-08T14:15:22Z</time></trkpt>
<trkpt lat="51.8995529811" lon="-3.3938115120"><ele>369</ele><time>2012-09-08T14:15:33Z</time></trkpt>
<trkpt lat="51.8994593302" lon="-3.3939724922"><ele>369</ele><time>2012-09-08T14:15:47Z</time></trkpt>
<trkpt lat="51.8993520101" lon="-3.3941081683"><ele>368</ele><time>2012-09-08T14:16:02Z</time></trkpt>
<trkpt lat="51.8992733637" lon="-3.3942909877"><ele>368</ele><time>2012-09-08T14:16:17Z</time></trkpt>
<trkpt lat="51.8991691589" lon="-3.3944320043"><ele>367</ele><time>2012-09-08T14:16:32Z</time></trkpt>
<trkpt lat="51.8990501404" lon="-3.3945486705"><ele>367</ele><time>2012-09-08T14:16:43Z</time></trkpt>
<trkpt lat="51.8989226659" lon="-3.3946693420"><ele>367</ele><time>2012-09-08T14:16:53Z</time></trkpt>
<trkpt lat="51.8988110224" lon="-3.3947955132"><ele>367</ele><time>2012-09-08T14:17:08Z</time></trkpt>
<trkpt lat="51.8986874898" lon="-3.3949083328"><ele>367</ele><time>2012-09-08T14:17:24Z</time></trkpt>
<trkpt lat="51.8985646566" lon="-3.3950068474"><ele>367</ele><time>2012-09-08T14:17:35Z</time></trkpt>
<trkpt lat="51.8984523137" lon="-3.3951545080"><ele>366</ele><time>2012-09-08T14:18:17Z</time></trkpt>
<trkpt lat="51.8983425140" lon="-3.3952811559"><ele>367</ele><time>2012-09-08T14:18:46Z</time></trkpt>
<trkpt lat="51.8984240214" lon="-3.3954618454"><ele>366</ele><time>2012-09-08T14:19:02Z</time></trkpt>
<trkpt lat="51.8985163371" lon="-3.3956285159"><ele>365</ele><time>2012-09-08T14:19:15Z</time></trkpt>
<trkpt lat="51.8985954920" lon="-3.3958093325"><ele>363</ele><time>2012-09-08T14:19:31Z</time></trkpt>
<trkpt lat="51.8986069997" lon="-3.3960336685"><ele>359</ele><time>2012-09-08T14:20:12Z</time></trkpt>
<trkpt lat="51.8986221949" lon="-3.3962538401"><ele>353</ele><time>2012-09-08T14:20:29Z</time></trkpt>
<trkpt lat="51.8986173630" lon="-3.3964806557"><ele>351</ele><time>2012-09-08T14:20:44Z</time></trkpt>
<trkpt lat="51.8986635208" lon="-3.3966951688"><ele>349</ele><time>2012-09-08T14:21:00Z</time></trkpt>
<trkpt lat="51.8987336477" lon="-3.3968825022"><ele>347</ele><time>2012-09-08T14:21:17Z</time></trkpt>
<trkpt lat="51.8988478343" lon="-3.3970308304"><ele>346</ele><time>2012-09-08T14:21:32Z</time></trkpt>
<trkpt lat="51.8989648183" lon="-3.3971524874"><ele>343</ele><time>2012-09-08T14:21:46Z</time></trkpt>
<trkpt lat="51.8991055171" lon="-3.3971396764"><ele>342</ele><time>2012-09-08T14:21:59Z</time></trkpt>
<trkpt lat="51.8992371877" lon="-3.3970919927"><ele>341</ele><time>2012-09-08T14:22:14Z</time></trkpt>
<trkpt lat="51.8993811925" lon="-3.3970824877"><ele>339</ele><time>2012-09-08T14:22:29Z</time></trkpt>
<trkpt lat="51.8994990031" lon="-3.3971996625"><ele>337</ele><time>2012-09-08T14:22:46Z</time></trkpt>
<trkpt lat="51.8995456696" lon="-3.3974043210"><ele>335</ele><time>2012-09-08T14:23:05Z</time></trkpt>
<trkpt lat="51.8996223450" lon="-3.3976048470"><ele>333</ele><time>2012-09-08T14:23:21Z</time></trkpt>
<trkpt lat="51.8996783574" lon="-3.3978143374"><ele>332</ele><time>2012-09-08T14:23:32Z</time></trkpt>
<trkpt lat="51.8997466405" lon="-3.3980026563"><ele>331</ele><time>2012-09-08T14:23:46Z</time></trkpt>
<trkpt lat="51.8997809728" lon="-3.3982301712"><ele>328</ele><time>2012-09-08T14:24:23Z</time></trkpt>
<trkpt lat="51.8998616536" lon="-3.3984101613"><ele>329</ele><time>2012-09-08T14:28:25Z</time></trkpt>
<trkpt lat="51.8999656677" lon="-3.3985536575"><ele>321</ele><time>2012-09-08T14:29:51Z</time></trkpt>
<trkpt lat="51.9000563304" lon="-3.3987319946"><ele>320</ele><time>2012-09-08T14:30:27Z</time></trkpt>
<trkpt lat="51.9001756668" lon="-3.3988470078"><ele>320</ele><time>2012-09-08T14:30:41Z</time></trkpt>
<trkpt lat="51.9003070196" lon="-3.3988996824"><ele>319</ele><time>2012-09-08T14:30:55Z</time></trkpt>
<trkpt lat="51.9004543304" lon="-3.3988746643"><ele>320</ele><time>2012-09-08T14:31:08Z</time></trkpt>
<trkpt lat="51.9005951564" lon="-3.3988556544"><ele>320</ele><time>2012-09-08T14:31:21Z</time></trkpt>
<trkpt lat="51.9007338206" lon="-3.3988404910"><ele>320</ele><time>2012-09-08T14:31:33Z</time></trkpt>
<trkpt lat="51.9008686701" lon="-3.3988466581"><ele>320</ele><time>2012-09-08T14:31:43Z</time></trkpt>
<trkpt lat="51.9010056814" lon="-3.3988181750"><ele>320</ele><time>2012-09-08T14:31:54Z</time></trkpt>
<trkpt lat="51.9011465073" lon="-3.3987976710"><ele>321</ele><time>2012-09-08T14:32:07Z</time></trkpt>
<trkpt lat="51.9012868245" lon="-3.3987808228"><ele>321</ele><time>2012-09-08T14:32:20Z</time></trkpt>
<trkpt lat="51.9014151891" lon="-3.3988631566"><ele>321</ele><time>2012-09-08T14:32:33Z</time></trkpt>
<trkpt lat="51.9015541712" lon="-3.3988650004"><ele>322</ele><time>2012-09-08T14:32:46Z</time></trkpt>
<trkpt lat="51.9016826630" lon="-3.3989561717"><ele>323</ele><time>2012-09-08T14:33:01Z</time></trkpt>
<trkpt lat="51.9018178304" lon="-3.3990118345"><ele>324</ele><time>2012-09-08T14:33:13Z</time></trkpt>
<trkpt lat="51.9019369761" lon="-3.3991195043"><ele>325</ele><time>2012-09-08T14:33:29Z</time></trkpt>
<trkpt lat="51.9020733515" lon="-3.3991021792"><ele>327</ele><time>2012-09-08T14:34:11Z</time></trkpt>
<trkpt lat="51.9022161484" lon="-3.3990440051"><ele>327</ele><time>2012-09-08T14:34:23Z</time></trkpt>
<trkpt lat="51.9023533503" lon="-3.3989830017"><ele>328</ele><time>2012-09-08T14:34:33Z</time></trkpt>
<trkpt lat="51.9024974823" lon="-3.3989398321"><ele>329</ele><time>2012-09-08T14:34:47Z</time></trkpt>
<trkpt lat="51.9026408513" lon="-3.3988875071"><ele>330</ele><time>2012-09-08T14:34:58Z</time></trkpt>
<trkpt lat="51.9027866364" lon="-3.3988521576"><ele>330</ele><time>2012-09-08T14:35:10Z</time></trkpt>
<trkpt lat="51.9029195150" lon="-3.3988034884"><ele>330</ele><time>2012-09-08T14:35:21Z</time></trkpt>
<trkpt lat="51.9030533473" lon="-3.3987566630"><ele>331</ele><time>2012-09-08T14:35:32Z</time></trkpt>
<trkpt lat="51.9031983058" lon="-3.3986955007"><ele>331</ele><time>2012-09-08T14:35:44Z</time></trkpt>
<trkpt lat="51.9033384959" lon="-3.3986946742"><ele>331</ele><time>2012-09-08T14:36:01Z</time></trkpt>
<trkpt lat="51.9034519831" lon="-3.3988245010"><ele>331</ele><time>2012-09-08T14:36:12Z</time></trkpt>
<trkpt lat="51.9035264969" lon="-3.3990113258"><ele>331</ele><time>2012-09-08T14:36:24Z</time></trkpt>
<trkpt lat="51.9035968145" lon="-3.3991983414"><ele>332</ele><time>2012-09-08T14:36:38Z</time></trkpt>
<trkpt lat="51.9036558151" lon="-3.3994035085"><ele>333</ele><time>2012-09-08T14:36:51Z</time></trkpt>
<trkpt lat="51.9036935170" lon="-3.3996178309"><ele>335</ele><time>2012-09-08T14:37:21Z</time></trkpt>
<trkpt lat="51.9038139979" lon="-3.3997168223"><ele>335</ele><time>2012-09-08T14:37:45Z</time></trkpt>
<trkpt lat="51.9039531708" lon="-3.3996230125"><ele>335</ele><time>2012-09-08T14:38:00Z</time></trkpt>
<trkpt lat="51.9093263626" lon="-3.3978844961"><ele>337</ele><time>2012-09-08T14:47:58Z</time></trkpt>
<trkpt lat="51.9094693502" lon="-3.3979458491"><ele>273</ele><time>2012-09-08T14:48:16Z</time></trkpt>
<trkpt lat="51.9096125285" lon="-3.3979881605"><ele>271</ele><time>2012-09-08T14:48:37Z</time></trkpt>
<trkpt lat="51.9097716649" lon="-3.3979793231"><ele>271</ele><time>2012-09-08T14:48:47Z</time></trkpt>
<trkpt lat="51.9099148432" lon="-3.3980166753"><ele>271</ele><time>2012-09-08T14:49:03Z</time></trkpt>
<trkpt lat="51.9099933624" lon="-3.3982031822"><ele>270</ele><time>2012-09-08T14:49:18Z</time></trkpt>
<trkpt lat="51.9101189931" lon="-3.3982943217"><ele>270</ele><time>2012-09-08T14:49:32Z</time></trkpt>
<trkpt lat="51.9102593104" lon="-3.3982921600"><ele>270</ele><time>2012-09-08T14:49:42Z</time></trkpt>
<trkpt lat="51.9103941600" lon="-3.3983003298"><ele>270</ele><time>2012-09-08T14:49:53Z</time></trkpt>
<trkpt lat="51.9104525248" lon="-3.3985068321"><ele>269</ele><time>2012-09-08T14:50:16Z</time></trkpt>
<trkpt lat="51.9105239868" lon="-3.3986921628"><ele>269</ele><time>2012-09-08T14:50:32Z</time></trkpt>
<trkpt lat="51.9105660121" lon="-3.3989159902"><ele>269</ele><time>2012-09-08T14:50:48Z</time></trkpt>
<trkpt lat="51.9105890274" lon="-3.3991440137"><ele>269</ele><time>2012-09-08T14:51:01Z</time></trkpt>
<trkpt lat="51.9105723063" lon="-3.3993651708"><ele>269</ele><time>2012-09-08T14:51:13Z</time></trkpt>
<trkpt lat="51.9105789820" lon="-3.3995976766"><ele>269</ele><time>2012-09-08T14:51:27Z</time></trkpt>
<trkpt lat="51.9105598450" lon="-3.3998138428"><ele>269</ele><time>2012-09-08T14:51:40Z</time></trkpt>
<trkpt lat="51.9106400172" lon="-3.4000046730"><ele>270</ele><time>2012-09-08T14:53:07Z</time></trkpt>
<trkpt lat="51.9107315063" lon="-3.4001771609"><ele>271</ele><time>2012-09-08T14:53:19Z</time></trkpt>
<trkpt lat="51.9108148575" lon="-3.4003639857"><ele>272</ele><time>2012-09-08T14:53:31Z</time></trkpt>
<trkpt lat="51.9109099706" lon="-3.4005303383"><ele>273</ele><time>2012-09-08T14:53:45Z</time></trkpt>
<trkpt lat="51.9110203425" lon="-3.4006660144"><ele>275</ele><time>2012-09-08T14:53:58Z</time></trkpt>
<trkpt lat="51.9111274719" lon="-3.4008233388"><ele>277</ele><time>2012-09-08T14:54:11Z</time></trkpt>
<trkpt lat="51.9112169902" lon="-3.4010085106"><ele>277</ele><time>2012-09-08T14:54:24Z</time></trkpt>
<trkpt lat="51.9112923304" lon="-3.4011994998"><ele>279</ele><time>2012-09-08T14:54:40Z</time></trkpt>
<trkpt lat="51.9113863627" lon="-3.4013565063"><ele>280</ele><time>2012-09-08T14:54:55Z</time></trkpt>
<trkpt lat="51.9114958445" lon="-3.4014870008"><ele>282</ele><time>2012-09-08T14:55:09Z</time></trkpt>
<trkpt lat="51.9115848541" lon="-3.4016586622"><ele>283</ele><time>2012-09-08T14:55:29Z</time></trkpt>
<trkpt lat="51.9116948446" lon="-3.4017981529"><ele>284</ele><time>2012-09-08T14:55:42Z</time></trkpt>
<trkpt lat="51.9117988586" lon="-3.4019483248"><ele>285</ele><time>2012-09-08T14:55:55Z</time></trkpt>
<trkpt lat="51.9119131724" lon="-3.4020828247"><ele>286</ele><time>2012-09-08T14:56:09Z</time></trkpt>
<trkpt lat="51.9119874954" lon="-3.4022756577"><ele>287</ele><time>2012-09-08T14:56:25Z</time></trkpt>
<trkpt lat="51.9120961507" lon="-3.4024213473"><ele>288</ele><time>2012-09-08T14:56:43Z</time></trkpt>
<trkpt lat="51.9122218450" lon="-3.4025058428"><ele>290</ele><time>2012-09-08T14:56:57Z</time></trkpt>
<trkpt lat="51.9123243332" lon="-3.4026546796"><ele>291</ele><time>2012-09-08T14:57:08Z</time></trkpt>
<trkpt lat="51.9124391556" lon="-3.4027700106"><ele>291</ele><time>2012-09-08T14:57:18Z</time></trkpt>
<trkpt lat="51.9125596364" lon="-3.4028801600"><ele>292</ele><time>2012-09-08T14:57:30Z</time></trkpt>
<trkpt lat="51.9126903534" lon="-3.4029836655"><ele>292</ele><time>2012-09-08T14:57:42Z</time></trkpt>
<trkpt lat="51.9128014882" lon="-3.4031246821"><ele>292</ele><time>2012-09-08T14:57:54Z</time></trkpt>
<trkpt lat="51.9129278183" lon="-3.4032023430"><ele>292</ele><time>2012-09-08T14:58:07Z</time></trkpt>
<trkpt lat="51.9130386353" lon="-3.4033485095"><ele>293</ele><time>2012-09-08T14:58:20Z</time></trkpt>
<trkpt lat="51.9131381353" lon="-3.4035046577"><ele>292</ele><time>2012-09-08T14:58:34Z</time></trkpt>
<trkpt lat="51.9132208506" lon="-3.4036888440"><ele>291</ele><time>2012-09-08T14:58:46Z</time></trkpt>
<trkpt lat="51.9132711411" lon="-3.4038996696"><ele>290</ele><time>2012-09-08T14:59:02Z</time></trkpt>
<trkpt lat="51.9133115133" lon="-3.4041143417"><ele>290</ele><time>2012-09-08T14:59:26Z</time></trkpt>
<trkpt lat="51.9133463542" lon="-3.4043363253"><ele>290</ele><time>2012-09-08T14:59:38Z</time></trkpt>
<trkpt lat="51.9133879979" lon="-3.4045636813"><ele>290</ele><time>2012-09-08T14:59:52Z</time></trkpt>
<trkpt lat="51.9133823395" lon="-3.4047936757"><ele>290</ele><time>2012-09-08T15:00:04Z</time></trkpt>
<trkpt lat="51.9134018580" lon="-3.4050263405"><ele>290</ele><time>2012-09-08T15:00:18Z</time></trkpt>
<trkpt lat="51.9134253184" lon="-3.4052496592"><ele>290</ele><time>2012-09-08T15:00:33Z</time></trkpt>
<trkpt lat="51.9134961446" lon="-3.4054433187"><ele>290</ele><time>2012-09-08T15:00:46Z</time></trkpt>
<trkpt lat="51.9135161718" lon="-3.4056808472"><ele>290</ele><time>2012-09-08T15:00:56Z</time></trkpt>
<trkpt lat="51.9135318120" lon="-3.4059223175"><ele>290</ele><time>2012-09-08T15:01:07Z</time></trkpt>
<trkpt lat="51.9135718028" lon="-3.4061408361"><ele>290</ele><time>2012-09-08T15:01:21Z</time></trkpt>
<trkpt lat="51.9135910034" lon="-3.4063666662"><ele>290</ele><time>2012-09-08T15:01:34Z</time></trkpt>
<trkpt lat="51.9134886424" lon="-3.4065250079"><ele>290</ele><time>2012-09-08T15:01:58Z</time></trkpt>
<trkpt lat="51.9133815130" lon="-3.4066668193"><ele>290</ele><time>2012-09-08T15:02:21Z</time></trkpt>
<trkpt lat="51.9134145101" lon="-3.4068865140"><ele>291</ele><time>2012-09-08T15:02:33Z</time></trkpt>
<trkpt lat="51.9134788513" lon="-3.4070808411"><ele>292</ele><time>2012-09-08T15:02:44Z</time></trkpt>
<trkpt lat="51.9135400136" lon="-3.4072953224"><ele>294</ele><time>2012-09-08T15:02:56Z</time></trkpt>
<trkpt lat="51.9135886510" lon="-3.4075004896"><ele>295</ele><time>2012-09-08T15:03:07Z</time></trkpt>
<trkpt lat="51.9136610031" lon="-3.4077020009"><ele>295</ele><time>2012-09-08T15:03:20Z</time></trkpt>
<trkpt lat="51.9137154897" lon="-3.4079031626"><ele>295</ele><time>2012-09-08T15:03:30Z</time></trkpt>
<trkpt lat="51.9137783051" lon="-3.4081133207"><ele>296</ele><time>2012-09-08T15:03:42Z</time></trkpt>
<trkpt lat="51.9138404846" lon="-3.4083169937"><ele>296</ele><time>2012-09-08T15:03:54Z</time></trkpt>
<trkpt lat="51.9138881683" lon="-3.4085306803"><ele>296</ele><time>2012-09-08T15:04:06Z</time></trkpt>
<trkpt lat="51.9139646530" lon="-3.4087258339"><ele>296</ele><time>2012-09-08T15:04:18Z</time></trkpt>
<trkpt lat="51.9140349706" lon="-3.4089171727"><ele>296</ele><time>2012-09-08T15:04:29Z</time></trkpt>
<trkpt lat="51.9141359965" lon="-3.4090626717"><ele>296</ele><time>2012-09-08T15:04:40Z</time></trkpt>
<trkpt lat="51.9142459869" lon="-3.4092234929"><ele>296</ele><time>2012-09-08T15:04:51Z</time></trkpt>
<trkpt lat="51.9143693288" lon="-3.4093523343"><ele>296</ele><time>2012-09-08T15:05:02Z</time></trkpt>
<trkpt lat="51.9144811630" lon="-3.4094900131"><ele>296</ele><time>2012-09-08T15:05:17Z</time></trkpt>
<trkpt lat="51.9146166484" lon="-3.4095375061"><ele>296</ele><time>2012-09-08T15:05:41Z</time></trkpt>
<trkpt lat="51.9147699992" lon="-3.4095761617"><ele>295</ele><time>2012-09-08T15:05:51Z</time></trkpt>
<trkpt lat="51.9149058024" lon="-3.4095800082"><ele>295</ele><time>2012-09-08T15:06:04Z</time></trkpt>
<trkpt lat="51.9150421778" lon="-3.4095835050"><ele>294</ele><time>2012-09-08T15:06:19Z</time></trkpt>
<trkpt lat="51.9152449926" lon="-3.4095528285"><ele>293</ele><time>2012-09-08T15:06:29Z</time></trkpt>
<trkpt lat="51.9154006958" lon="-3.4095198313"><ele>293</ele><time>2012-09-08T15:06:39Z</time></trkpt>
<trkpt lat="51.9155349731" lon="-3.4094805082"><ele>292</ele><time>2012-09-08T15:06:51Z</time></trkpt>
<trkpt lat="51.9157031377" lon="-3.4094571749"><ele>292</ele><time>2012-09-08T15:07:01Z</time></trkpt>
<trkpt lat="51.9158414841" lon="-3.4094198227"><ele>292</ele><time>2012-09-08T15:07:12Z</time></trkpt>
<trkpt lat="51.9159936905" lon="-3.4094298363"><ele>292</ele><time>2012-09-08T15:07:22Z</time></trkpt>
<trkpt lat="51.9161421458" lon="-3.4094374975"><ele>292</ele><time>2012-09-08T15:07:32Z</time></trkpt>
<trkpt lat="51.9161803563" lon="-3.4096576691"><ele>292</ele><time>2012-09-08T15:07:57Z</time></trkpt>
<trkpt lat="51.9161768595" lon="-3.4098895073"><ele>291</ele><time>2012-09-08T15:08:08Z</time></trkpt>
<trkpt lat="51.9162380219" lon="-3.4101186752"><ele>291</ele><time>2012-09-08T15:08:18Z</time></trkpt>
<trkpt lat="51.9162893295" lon="-3.4103210131"><ele>290</ele><time>2012-09-08T15:08:28Z</time></trkpt>
<trkpt lat="51.9163143158" lon="-3.4105763435"><ele>290</ele><time>2012-09-08T15:08:38Z</time></trkpt>
<trkpt lat="51.9163585027" lon="-3.4107893308"><ele>289</ele><time>2012-09-08T15:08:48Z</time></trkpt>
<trkpt lat="51.9164098104" lon="-3.4109976768"><ele>289</ele><time>2012-09-08T15:08:58Z</time></trkpt>
<trkpt lat="51.9164781570" lon="-3.4112006823"><ele>289</ele><time>2012-09-08T15:09:08Z</time></trkpt>
<trkpt lat="51.9165721893" lon="-3.4113621712"><ele>288</ele><time>2012-09-08T15:09:19Z</time></trkpt>
<trkpt lat="51.9166846593" lon="-3.4114969889"><ele>288</ele><time>2012-09-08T15:09:29Z</time></trkpt>
<trkpt lat="51.9167681376" lon="-3.4116738319"><ele>288</ele><time>2012-09-08T15:09:40Z</time></trkpt>
<trkpt lat="51.9169168472" lon="-3.4117506663"><ele>288</ele><time>2012-09-08T15:09:50Z</time></trkpt>
<trkpt lat="51.9170501709" lon="-3.4118549983"><ele>288</ele><time>2012-09-08T15:10:00Z</time></trkpt>
<trkpt lat="51.9171826681" lon="-3.4119689941"><ele>287</ele><time>2012-09-08T15:10:11Z</time></trkpt>
<trkpt lat="51.9173266729" lon="-3.4119966825"><ele>287</ele><time>2012-09-08T15:10:22Z</time></trkpt>
<trkpt lat="51.9174636841" lon="-3.4120829900"><ele>286</ele><time>2012-09-08T15:10:36Z</time></trkpt>
<trkpt lat="51.9175900141" lon="-3.4121843338"><ele>286</ele><time>2012-09-08T15:10:47Z</time></trkpt>
<trkpt lat="51.9177103043" lon="-3.4123021762"><ele>286</ele><time>2012-09-08T15:10:57Z</time></trkpt>
<trkpt lat="51.9178383509" lon="-3.4124366760"><ele>285</ele><time>2012-09-08T15:11:07Z</time></trkpt>
<trkpt lat="51.9179491679" lon="-3.4125678380"><ele>285</ele><time>2012-09-08T15:11:18Z</time></trkpt>
<trkpt lat="51.9180598577" lon="-3.4127176603"><ele>284</ele><time>2012-09-08T15:11:28Z</time></trkpt>
<trkpt lat="51.9181513468" lon="-3.4128919919"><ele>283</ele><time>2012-09-08T15:11:40Z</time></trkpt>
<trkpt lat="51.9182548523" lon="-3.4130350113"><ele>282</ele><time>2012-09-08T15:11:51Z</time></trkpt>
<trkpt lat="51.9183881760" lon="-3.4131574949"><ele>282</ele><time>2012-09-08T15:12:01Z</time></trkpt>
<trkpt lat="51.9185166677" lon="-3.4133735021"><ele>281</ele><time>2012-09-08T15:12:11Z</time></trkpt>
<trkpt lat="51.9185373306" lon="-3.4136358261"><ele>279</ele><time>2012-09-08T15:12:21Z</time></trkpt>
<trkpt lat="51.9185040156" lon="-3.4138551712"><ele>278</ele><time>2012-09-08T15:12:33Z</time></trkpt>
<trkpt lat="51.9184416453" lon="-3.4140581767"><ele>277</ele><time>2012-09-08T15:12:44Z</time></trkpt>
<trkpt lat="51.9183671951" lon="-3.4142640114"><ele>277</ele><time>2012-09-08T15:12:55Z</time></trkpt>
<trkpt lat="51.9182646434" lon="-3.4144203186"><ele>276</ele><time>2012-09-08T15:13:06Z</time></trkpt>
<trkpt lat="51.9181806564" lon="-3.4145976702"><ele>276</ele><time>2012-09-08T15:13:17Z</time></trkpt>
<trkpt lat="51.9180644989" lon="-3.4147428195"><ele>275</ele><time>2012-09-08T15:13:28Z</time></trkpt>
<trkpt lat="51.9179531733" lon="-3.4149133364"><ele>274</ele><time>2012-09-08T15:13:38Z</time></trkpt>
<trkpt lat="51.9178349813" lon="-3.4150656700"><ele>274</ele><time>2012-09-08T15:13:48Z</time></trkpt>
<trkpt lat="51.9177308400" lon="-3.4152086576"><ele>274</ele><time>2012-09-08T15:13:59Z</time></trkpt>
<trkpt lat="51.9176258087" lon="-3.4153523445"><ele>273</ele><time>2012-09-08T15:14:09Z</time></trkpt>
<trkpt lat="51.9175106684" lon="-3.4154966672"><ele>273</ele><time>2012-09-08T15:14:22Z</time></trkpt>
<trkpt lat="51.9174213409" lon="-3.4156990051"><ele>272</ele><time>2012-09-08T15:14:32Z</time></trkpt>
<trkpt lat="51.9173428218" lon="-3.4158985138"><ele>272</ele><time>2012-09-08T15:14:42Z</time></trkpt>
<trkpt lat="51.9172773361" lon="-3.4161083221"><ele>271</ele><time>2012-09-08T15:14:52Z</time></trkpt>
<trkpt lat="51.9172351837" lon="-3.4163301786"><ele>271</ele><time>2012-09-08T15:15:02Z</time></trkpt>
<trkpt lat="51.9172260284" lon="-3.4165523211"><ele>271</ele><time>2012-09-08T15:15:13Z</time></trkpt>
<trkpt lat="51.9171414693" lon="-3.4167746544"><ele>271</ele><time>2012-09-08T15:15:23Z</time></trkpt>
<trkpt lat="51.9170291901" lon="-3.4169045130"><ele>271</ele><time>2012-09-08T15:15:34Z</time></trkpt>
<trkpt lat="51.9169101715" lon="-3.4170388222"><ele>271</ele><time>2012-09-08T15:15:45Z</time></trkpt>
<trkpt lat="51.9167734782" lon="-3.4171391805"><ele>271</ele><time>2012-09-08T15:15:55Z</time></trkpt>
<trkpt lat="51.9166753133" lon="-3.4173278491"><ele>271</ele><time>2012-09-08T15:16:05Z</time></trkpt>
<trkpt lat="51.9165963491" lon="-3.4175074895"><ele>271</ele><time>2012-09-08T15:16:17Z</time></trkpt>
<trkpt lat="51.9165349960" lon="-3.4177199999"><ele>271</ele><time>2012-09-08T15:16:29Z</time></trkpt>
<trkpt lat="51.9164151510" lon="-3.4178559939"><ele>271</ele><time>2012-09-08T15:16:39Z</time></trkpt>
<trkpt lat="51.9162826538" lon="-3.4179105123"><ele>272</ele><time>2012-09-08T15:16:52Z</time></trkpt>
<trkpt lat="51.9161514918" lon="-3.4180075010"><ele>272</ele><time>2012-09-08T15:17:03Z</time></trkpt>
<trkpt lat="51.9160100301" lon="-3.4180413246"><ele>272</ele><time>2012-09-08T15:17:17Z</time></trkpt>
<trkpt lat="51.9158735275" lon="-3.4181006749"><ele>273</ele><time>2012-09-08T15:17:29Z</time></trkpt>
<trkpt lat="51.9157430013" lon="-3.4181823413"><ele>273</ele><time>2012-09-08T15:17:42Z</time></trkpt>
<trkpt lat="51.9156070073" lon="-3.4181816737"><ele>273</ele><time>2012-09-08T15:17:57Z</time></trkpt>
<trkpt lat="51.9154688517" lon="-3.4182534854"><ele>274</ele><time>2012-09-08T15:18:10Z</time></trkpt>
<trkpt lat="51.9153380076" lon="-3.4183069865"><ele>275</ele><time>2012-09-08T15:18:21Z</time></trkpt>
<trkpt lat="51.9152050018" lon="-3.4183848381"><ele>276</ele><time>2012-09-08T15:18:33Z</time></trkpt>
<trkpt lat="51.9150668462" lon="-3.4184333483"><ele>277</ele><time>2012-09-08T15:18:46Z</time></trkpt>
<trkpt lat="51.9149295171" lon="-3.4184080124"><ele>279</ele><time>2012-09-08T15:18:58Z</time></trkpt>
<trkpt lat="51.9147896449" lon="-3.4184088389"><ele>280</ele><time>2012-09-08T15:19:13Z</time></trkpt>
<trkpt lat="51.9146530151" lon="-3.4184533437"><ele>281</ele><time>2012-09-08T15:19:25Z</time></trkpt>
<trkpt lat="51.9145109812" lon="-3.4184653282"><ele>283</ele><time>2012-09-08T15:19:37Z</time></trkpt>
<trkpt lat="51.9143719991" lon="-3.4184705098"><ele>285</ele><time>2012-09-08T15:19:51Z</time></trkpt>
<trkpt lat="51.9142304738" lon="-3.4185106595"><ele>286</ele><time>2012-09-08T15:20:03Z</time></trkpt>
<trkpt lat="51.9140958150" lon="-3.4185896556"><ele>287</ele><time>2012-09-08T15:20:15Z</time></trkpt>
<trkpt lat="51.9139654795" lon="-3.4186779976"><ele>289</ele><time>2012-09-08T15:20:27Z</time></trkpt>
<trkpt lat="51.9138663610" lon="-3.4188449860"><ele>290</ele><time>2012-09-08T15:20:39Z</time></trkpt>
<trkpt lat="51.9137655258" lon="-3.4190100034"><ele>291</ele><time>2012-09-08T15:20:51Z</time></trkpt>
<trkpt lat="51.9136725108" lon="-3.4191738447"><ele>293</ele><time>2012-09-08T15:21:04Z</time></trkpt>
</trkseg>
</trk>
</gpx>